UAL96 KSFO-YBBN
Flight info
| Callsign | UAL96 |
|---|---|
| Flight time | N/A |
| Altitude | 34000 |
| Route | GNNRR3 BEBOP R464 BOARD/N0486F360 R464 BITTA DCT BARKR B474 ARVII/N0486F380 B474 ATRAS/N0483F400 B474 MEPAB R587 ATROP H224 TEBOT |
| Aircraft | B772/H-SDE2E3FGHIJ5LORVWXY/LB1D1 |
Departure
| Time | 2026-05-06 04:12 |
|---|---|
| Airport | San Francisco International Airport (KSFO) |
Arrival
| Time | N/A |
|---|---|
| Airport | Brisbane International Airport (YBBN) |
| Time | Latitude | Longitude | Altitude | Speed | Heading |
|---|---|---|---|---|---|
| 2026-05-06 03:21 | 37.61769 | -122.39254 | 26 ft | 0 kts | 27° |
| 2026-05-06 03:53 | 37.61753 | -122.39265 | 25 ft | 4 kts | 27° |
| 2026-05-06 03:53 | 37.61730 | -122.39278 | 25 ft | 4 kts | 12° |
| 2026-05-06 03:53 | 37.61706 | -122.39279 | 26 ft | 4 kts | 339° |
| 2026-05-06 03:54 | 37.61687 | -122.39263 | 32 ft | 4 kts | 304° |
| 2026-05-06 03:54 | 37.61680 | -122.39249 | 32 ft | 1 kts | 298° |
| 2026-05-06 03:54 | 37.61679 | -122.39248 | 32 ft | 0 kts | 298° |
| 2026-05-06 04:00 | 37.61682 | -122.39253 | 24 ft | 2 kts | 299° |
| 2026-05-06 04:01 | 37.61698 | -122.39285 | 39 ft | 6 kts | 303° |
| 2026-05-06 04:01 | 37.61726 | -122.39342 | 26 ft | 9 kts | 302° |
| 2026-05-06 04:01 | 37.61759 | -122.39436 | 26 ft | 14 kts | 292° |
| 2026-05-06 04:01 | 37.61828 | -122.39514 | 26 ft | 14 kts | 337° |
| 2026-05-06 04:02 | 37.61918 | -122.39528 | 26 ft | 13 kts | 14° |
| 2026-05-06 04:02 | 37.61978 | -122.39446 | 26 ft | 13 kts | 66° |
| 2026-05-06 04:02 | 37.62003 | -122.39347 | 26 ft | 9 kts | 73° |
| 2026-05-06 04:02 | 37.62006 | -122.39333 | 26 ft | 0 kts | 73° |
| 2026-05-06 04:03 | 37.62014 | -122.39304 | 26 ft | 9 kts | 73° |
| 2026-05-06 04:03 | 37.62063 | -122.39219 | 26 ft | 15 kts | 31° |
| 2026-05-06 04:03 | 37.62153 | -122.39157 | 26 ft | 15 kts | 27° |
| 2026-05-06 04:03 | 37.62212 | -122.39115 | 26 ft | 15 kts | 40° |
| 2026-05-06 04:04 | 37.62251 | -122.39006 | 26 ft | 11 kts | 72° |
| 2026-05-06 04:04 | 37.62252 | -122.38884 | 26 ft | 11 kts | 117° |
| 2026-05-06 04:04 | 37.62237 | -122.38851 | 26 ft | 4 kts | 118° |
| 2026-05-06 04:04 | 37.62223 | -122.38818 | 25 ft | 4 kts | 117° |
| 2026-05-06 04:05 | 37.62200 | -122.38761 | 26 ft | 12 kts | 117° |
| 2026-05-06 04:05 | 37.62148 | -122.38635 | 25 ft | 20 kts | 117° |
| 2026-05-06 04:05 | 37.62094 | -122.38503 | 26 ft | 14 kts | 118° |
| 2026-05-06 04:05 | 37.62077 | -122.38464 | 26 ft | 2 kts | 118° |
| 2026-05-06 04:06 | 37.62074 | -122.38440 | 26 ft | 6 kts | 86° |
| 2026-05-06 04:06 | 37.62092 | -122.38334 | 26 ft | 19 kts | 106° |
| 2026-05-06 04:06 | 37.62033 | -122.38187 | 26 ft | 15 kts | 118° |
| 2026-05-06 04:06 | 37.61985 | -122.38071 | 26 ft | 15 kts | 117° |
| 2026-05-06 04:07 | 37.61920 | -122.37958 | 25 ft | 18 kts | 138° |
| 2026-05-06 04:07 | 37.61827 | -122.37854 | 26 ft | 18 kts | 122° |
| 2026-05-06 04:07 | 37.61779 | -122.37709 | 26 ft | 18 kts | 111° |
| 2026-05-06 04:07 | 37.61735 | -122.37562 | 26 ft | 18 kts | 110° |
| 2026-05-06 04:08 | 37.61681 | -122.37418 | 32 ft | 18 kts | 118° |
| 2026-05-06 04:08 | 37.61621 | -122.37278 | 31 ft | 18 kts | 118° |
| 2026-05-06 04:08 | 37.61562 | -122.37138 | 30 ft | 18 kts | 118° |
| 2026-05-06 04:08 | 37.61503 | -122.36998 | 32 ft | 18 kts | 118° |
| 2026-05-06 04:09 | 37.61430 | -122.36873 | 28 ft | 18 kts | 131° |
| 2026-05-06 04:09 | 37.61353 | -122.36750 | 29 ft | 18 kts | 119° |
| 2026-05-06 04:09 | 37.61293 | -122.36610 | 32 ft | 18 kts | 118° |
| 2026-05-06 04:09 | 37.61234 | -122.36469 | 31 ft | 18 kts | 118° |
| 2026-05-06 04:10 | 37.61174 | -122.36329 | 31 ft | 18 kts | 118° |
| 2026-05-06 04:10 | 37.61115 | -122.36190 | 32 ft | 18 kts | 118° |
| 2026-05-06 04:10 | 37.61056 | -122.36049 | 30 ft | 18 kts | 114° |
| 2026-05-06 04:10 | 37.61092 | -122.35909 | 31 ft | 18 kts | 40° |
| 2026-05-06 04:11 | 37.61203 | -122.35918 | 30 ft | 19 kts | 311° |
| 2026-05-06 04:11 | 37.61285 | -122.36102 | 26 ft | 36 kts | 297° |
| 2026-05-06 04:11 | 37.61499 | -122.36621 | 26 ft | 103 kts | 298° |
| 2026-05-06 04:11 | 37.61931 | -122.37640 | 28 ft | 164 kts | 298° |
| 2026-05-06 04:12 | 37.62499 | -122.38997 | 421 ft | 182 kts | 296° |
| 2026-05-06 04:12 | 37.63088 | -122.40417 | 1221 ft | 188 kts | 297° |
| 2026-05-06 04:12 | 37.63713 | -122.41841 | 2064 ft | 190 kts | 298° |
| 2026-05-06 04:12 | 37.64351 | -122.43264 | 2399 ft | 200 kts | 297° |
| 2026-05-06 04:13 | 37.65062 | -122.44885 | 2443 ft | 222 kts | 297° |
| 2026-05-06 04:13 | 37.65833 | -122.46632 | 2620 ft | 236 kts | 297° |
| 2026-05-06 04:13 | 37.66660 | -122.48506 | 2923 ft | 250 kts | 297° |
| 2026-05-06 04:13 | 37.67251 | -122.50572 | 3286 ft | 256 kts | 271° |
| 2026-05-06 04:14 | 37.66915 | -122.52775 | 3747 ft | 258 kts | 250° |
| 2026-05-06 04:14 | 37.66337 | -122.54945 | 4223 ft | 266 kts | 253° |
| 2026-05-06 04:14 | 37.65779 | -122.57189 | 4862 ft | 270 kts | 254° |
| 2026-05-06 04:14 | 37.65215 | -122.59469 | 5414 ft | 275 kts | 255° |
| 2026-05-06 04:15 | 37.64700 | -122.61535 | 5922 ft | 279 kts | 254° |
| 2026-05-06 04:15 | 37.64109 | -122.63896 | 6482 ft | 285 kts | 255° |
| 2026-05-06 04:15 | 37.63503 | -122.66306 | 7020 ft | 289 kts | 255° |
| 2026-05-06 04:15 | 37.62891 | -122.68731 | 7606 ft | 291 kts | 254° |
| 2026-05-06 04:16 | 37.62274 | -122.71173 | 8180 ft | 294 kts | 254° |
| 2026-05-06 04:16 | 37.61646 | -122.73652 | 8763 ft | 297 kts | 254° |
| 2026-05-06 04:16 | 37.61063 | -122.75951 | 9267 ft | 300 kts | 254° |
| 2026-05-06 04:16 | 37.60456 | -122.78344 | 9811 ft | 303 kts | 254° |
| 2026-05-06 04:17 | 37.59814 | -122.80872 | 10292 ft | 309 kts | 254° |
| 2026-05-06 04:17 | 37.59138 | -122.83534 | 10440 ft | 327 kts | 254° |
| 2026-05-06 04:17 | 37.58424 | -122.86346 | 10595 ft | 346 kts | 254° |
| 2026-05-06 04:17 | 37.57668 | -122.89320 | 10742 ft | 365 kts | 254° |
| 2026-05-06 04:18 | 37.56872 | -122.92441 | 10963 ft | 382 kts | 254° |
| 2026-05-06 04:18 | 37.56047 | -122.95671 | 11446 ft | 392 kts | 254° |
| 2026-05-06 04:18 | 37.55200 | -122.98978 | 12030 ft | 398 kts | 254° |
| 2026-05-06 04:18 | 37.54345 | -123.02308 | 12713 ft | 401 kts | 254° |
| 2026-05-06 04:19 | 37.53484 | -123.05662 | 13413 ft | 404 kts | 254° |
| 2026-05-06 04:19 | 37.52613 | -123.09047 | 14052 ft | 409 kts | 254° |
| 2026-05-06 04:19 | 37.51740 | -123.12437 | 14616 ft | 413 kts | 254° |
| 2026-05-06 04:19 | 37.50850 | -123.15890 | 15185 ft | 416 kts | 254° |
| 2026-05-06 04:20 | 37.49952 | -123.19373 | 15773 ft | 419 kts | 254° |
| 2026-05-06 04:20 | 37.49044 | -123.22888 | 16345 ft | 423 kts | 254° |
| 2026-05-06 04:20 | 37.48128 | -123.26427 | 16877 ft | 428 kts | 254° |
| 2026-05-06 04:20 | 37.47202 | -123.30002 | 17407 ft | 432 kts | 254° |
| 2026-05-06 04:21 | 37.46272 | -123.33589 | 17933 ft | 436 kts | 254° |
| 2026-05-06 04:21 | 37.45332 | -123.37206 | 18450 ft | 439 kts | 254° |
| 2026-05-06 04:21 | 37.44378 | -123.40875 | 18902 ft | 443 kts | 254° |
| 2026-05-06 04:21 | 37.43412 | -123.44584 | 19368 ft | 446 kts | 254° |
| 2026-05-06 04:22 | 37.42454 | -123.48255 | 19814 ft | 449 kts | 254° |
| 2026-05-06 04:22 | 37.41476 | -123.51997 | 20262 ft | 452 kts | 254° |
| 2026-05-06 04:22 | 37.40490 | -123.55764 | 20698 ft | 455 kts | 254° |
| 2026-05-06 04:23 | 37.38493 | -123.63383 | 21550 ft | 462 kts | 254° |
| 2026-05-06 04:23 | 37.37481 | -123.67234 | 21968 ft | 465 kts | 254° |
| 2026-05-06 04:23 | 37.36464 | -123.71096 | 22381 ft | 468 kts | 254° |
| 2026-05-06 04:23 | 37.35433 | -123.75007 | 22812 ft | 471 kts | 254° |
| 2026-05-06 04:24 | 37.34398 | -123.78927 | 23244 ft | 474 kts | 255° |
| 2026-05-06 04:24 | 37.33356 | -123.82868 | 23653 ft | 477 kts | 255° |
| 2026-05-06 04:24 | 37.32316 | -123.86794 | 24004 ft | 480 kts | 254° |
| 2026-05-06 04:24 | 37.31258 | -123.90784 | 24362 ft | 482 kts | 254° |
| 2026-05-06 04:25 | 37.30194 | -123.94787 | 24730 ft | 484 kts | 254° |
| 2026-05-06 04:25 | 37.29124 | -123.98807 | 25078 ft | 486 kts | 254° |
| 2026-05-06 04:25 | 37.28051 | -124.02835 | 25435 ft | 488 kts | 254° |
| 2026-05-06 04:25 | 37.26970 | -124.06885 | 25760 ft | 490 kts | 254° |
| 2026-05-06 04:26 | 37.25884 | -124.10946 | 26072 ft | 493 kts | 254° |
| 2026-05-06 04:26 | 37.24785 | -124.15050 | 26386 ft | 495 kts | 254° |
| 2026-05-06 04:26 | 37.23683 | -124.19161 | 26691 ft | 497 kts | 254° |
| 2026-05-06 04:26 | 37.22575 | -124.23286 | 26987 ft | 499 kts | 254° |
| 2026-05-06 04:27 | 37.21465 | -124.27414 | 27291 ft | 501 kts | 254° |
| 2026-05-06 04:27 | 37.20348 | -124.31558 | 27581 ft | 503 kts | 254° |
| 2026-05-06 04:27 | 37.19225 | -124.35720 | 27848 ft | 505 kts | 254° |
| 2026-05-06 04:27 | 37.18094 | -124.39904 | 28099 ft | 507 kts | 254° |
| 2026-05-06 04:28 | 37.16960 | -124.44093 | 28361 ft | 509 kts | 254° |
| 2026-05-06 04:28 | 37.15835 | -124.48241 | 28581 ft | 510 kts | 253° |
| 2026-05-06 04:28 | 37.14690 | -124.52457 | 28828 ft | 512 kts | 253° |
| 2026-05-06 04:28 | 37.13535 | -124.56701 | 29070 ft | 513 kts | 253° |
| 2026-05-06 04:29 | 37.12382 | -124.60934 | 29269 ft | 515 kts | 253° |
| 2026-05-06 04:29 | 37.11219 | -124.65194 | 29476 ft | 517 kts | 253° |
| 2026-05-06 04:29 | 37.10053 | -124.69458 | 29664 ft | 518 kts | 253° |
| 2026-05-06 04:29 | 37.08884 | -124.73728 | 29889 ft | 518 kts | 253° |
| 2026-05-06 04:30 | 37.07715 | -124.77989 | 30197 ft | 517 kts | 253° |
| 2026-05-06 04:30 | 37.06546 | -124.82239 | 30557 ft | 513 kts | 253° |
| 2026-05-06 04:30 | 37.05383 | -124.86464 | 30827 ft | 512 kts | 253° |
| 2026-05-06 04:30 | 37.04222 | -124.90677 | 31019 ft | 512 kts | 253° |
| 2026-05-06 04:31 | 37.03056 | -124.94903 | 31196 ft | 513 kts | 253° |
| 2026-05-06 04:31 | 37.01891 | -124.99122 | 31400 ft | 513 kts | 253° |
| 2026-05-06 04:31 | 37.00737 | -125.03292 | 31597 ft | 512 kts | 253° |
| 2026-05-06 04:31 | 36.99567 | -125.07510 | 31813 ft | 512 kts | 253° |
| 2026-05-06 04:32 | 36.98397 | -125.11722 | 32021 ft | 512 kts | 253° |
| 2026-05-06 04:32 | 36.97225 | -125.15933 | 32232 ft | 511 kts | 253° |
| 2026-05-06 04:32 | 36.96053 | -125.20138 | 32438 ft | 511 kts | 253° |
| 2026-05-06 04:32 | 36.94881 | -125.24338 | 32644 ft | 511 kts | 253° |
| 2026-05-06 04:33 | 36.93710 | -125.28529 | 32850 ft | 510 kts | 253° |
| 2026-05-06 04:33 | 36.92540 | -125.32706 | 33066 ft | 509 kts | 253° |
| 2026-05-06 04:33 | 36.91370 | -125.36879 | 33259 ft | 509 kts | 253° |
| 2026-05-06 04:33 | 36.90198 | -125.41055 | 33447 ft | 509 kts | 253° |
| 2026-05-06 04:34 | 36.89026 | -125.45224 | 33644 ft | 509 kts | 253° |
| 2026-05-06 04:34 | 36.87852 | -125.49389 | 33840 ft | 508 kts | 253° |
| 2026-05-06 04:34 | 36.86675 | -125.53561 | 34011 ft | 508 kts | 252° |
| 2026-05-06 04:35 | 36.84319 | -125.61897 | 34142 ft | 509 kts | 252° |
| 2026-05-06 04:35 | 36.81957 | -125.70222 | 34156 ft | 508 kts | 252° |
| 2026-05-06 04:36 | 36.79608 | -125.78477 | 34156 ft | 508 kts | 252° |
| 2026-05-06 04:36 | 36.77238 | -125.86783 | 34166 ft | 507 kts | 252° |
| 2026-05-06 04:37 | 36.74870 | -125.95056 | 34165 ft | 507 kts | 252° |
| 2026-05-06 04:37 | 36.72488 | -126.03352 | 34170 ft | 507 kts | 252° |
| 2026-05-06 04:38 | 36.70107 | -126.11620 | 34170 ft | 507 kts | 252° |
| 2026-05-06 04:38 | 36.67718 | -126.19889 | 34167 ft | 507 kts | 252° |
| 2026-05-06 04:39 | 36.65342 | -126.28092 | 34172 ft | 507 kts | 252° |
| 2026-05-06 04:39 | 36.62944 | -126.36343 | 34173 ft | 506 kts | 252° |
| 2026-05-06 04:40 | 36.60538 | -126.44596 | 34173 ft | 506 kts | 252° |
| 2026-05-06 04:40 | 36.58132 | -126.52827 | 34172 ft | 506 kts | 252° |
| 2026-05-06 04:41 | 36.55723 | -126.61044 | 34177 ft | 506 kts | 251° |
| 2026-05-06 04:41 | 36.53322 | -126.69209 | 34182 ft | 505 kts | 251° |
| 2026-05-06 04:42 | 36.50901 | -126.77419 | 34178 ft | 505 kts | 251° |
| 2026-05-06 04:42 | 36.48475 | -126.85627 | 34182 ft | 505 kts | 251° |
| 2026-05-06 04:43 | 36.46045 | -126.93819 | 34178 ft | 506 kts | 251° |
| 2026-05-06 04:43 | 36.43646 | -127.02033 | 34180 ft | 506 kts | 252° |
| 2026-05-06 04:44 | 36.41267 | -127.10256 | 34187 ft | 506 kts | 252° |
| 2026-05-06 04:44 | 36.38898 | -127.18418 | 34188 ft | 506 kts | 252° |
| 2026-05-06 04:45 | 36.36499 | -127.26638 | 34185 ft | 506 kts | 251° |
| 2026-05-06 04:45 | 36.34091 | -127.34857 | 34194 ft | 506 kts | 251° |
| 2026-05-06 04:46 | 36.31679 | -127.43059 | 34190 ft | 506 kts | 251° |
| 2026-05-06 04:46 | 36.29261 | -127.51263 | 34187 ft | 506 kts | 251° |
| 2026-05-06 04:47 | 36.26838 | -127.59458 | 34197 ft | 506 kts | 251° |
| 2026-05-06 04:47 | 36.24409 | -127.67649 | 34202 ft | 506 kts | 251° |
| 2026-05-06 04:48 | 36.21988 | -127.75793 | 34199 ft | 506 kts | 251° |
| 2026-05-06 04:48 | 36.19958 | -127.82600 | 34209 ft | 506 kts | 251° |
| 2026-05-06 04:49 | 36.17516 | -127.90768 | 34207 ft | 506 kts | 251° |
| 2026-05-06 04:49 | 36.15065 | -127.98943 | 34206 ft | 506 kts | 251° |
| 2026-05-06 04:50 | 36.12606 | -128.07121 | 34207 ft | 506 kts | 251° |
| 2026-05-06 04:50 | 36.10148 | -128.15272 | 34209 ft | 506 kts | 251° |
| 2026-05-06 04:51 | 36.07680 | -128.23434 | 34203 ft | 506 kts | 250° |
| 2026-05-06 04:51 | 36.05212 | -128.31569 | 34215 ft | 506 kts | 250° |
| 2026-05-06 04:52 | 36.02737 | -128.39709 | 34220 ft | 505 kts | 250° |
| 2026-05-06 04:52 | 36.00271 | -128.47792 | 34217 ft | 505 kts | 250° |
| 2026-05-06 04:53 | 35.97784 | -128.55924 | 34215 ft | 505 kts | 250° |
| 2026-05-06 04:53 | 35.95297 | -128.64032 | 34218 ft | 505 kts | 250° |
| 2026-05-06 04:54 | 35.92805 | -128.72133 | 34219 ft | 505 kts | 250° |
| 2026-05-06 04:54 | 35.90303 | -128.80244 | 34223 ft | 505 kts | 250° |
| 2026-05-06 04:55 | 35.87800 | -128.88334 | 34223 ft | 505 kts | 250° |
| 2026-05-06 04:55 | 35.85295 | -128.96413 | 34226 ft | 505 kts | 250° |
| 2026-05-06 04:56 | 35.82780 | -129.04493 | 34225 ft | 505 kts | 250° |
| 2026-05-06 04:56 | 35.80280 | -129.12508 | 34230 ft | 504 kts | 250° |
| 2026-05-06 04:57 | 35.77757 | -129.20574 | 34237 ft | 504 kts | 250° |
| 2026-05-06 04:57 | 35.75228 | -129.28638 | 34232 ft | 504 kts | 249° |
| 2026-05-06 04:58 | 35.72694 | -129.36692 | 34229 ft | 504 kts | 249° |
| 2026-05-06 04:58 | 35.70157 | -129.44737 | 34240 ft | 504 kts | 249° |
| 2026-05-06 04:59 | 35.67634 | -129.52715 | 34239 ft | 503 kts | 249° |
| 2026-05-06 04:59 | 35.65090 | -129.60735 | 34242 ft | 503 kts | 249° |
| 2026-05-06 05:00 | 35.62542 | -129.68748 | 34224 ft | 502 kts | 249° |
| 2026-05-06 05:00 | 35.59993 | -129.76743 | 34250 ft | 502 kts | 249° |
| 2026-05-06 05:01 | 35.57441 | -129.84723 | 34251 ft | 502 kts | 249° |
| 2026-05-06 05:01 | 35.54884 | -129.92699 | 34245 ft | 501 kts | 249° |
| 2026-05-06 05:02 | 35.52324 | -130.00663 | 34252 ft | 501 kts | 249° |
| 2026-05-06 05:02 | 35.49777 | -130.08567 | 34254 ft | 501 kts | 249° |
| 2026-05-06 05:03 | 35.47206 | -130.16523 | 34252 ft | 501 kts | 249° |
| 2026-05-06 05:03 | 35.44637 | -130.24450 | 34252 ft | 500 kts | 249° |
| 2026-05-06 05:04 | 35.42058 | -130.32388 | 34257 ft | 500 kts | 249° |
| 2026-05-06 05:04 | 35.39480 | -130.40302 | 34257 ft | 500 kts | 249° |
| 2026-05-06 05:05 | 35.36894 | -130.48218 | 34259 ft | 499 kts | 249° |
| 2026-05-06 05:05 | 35.34310 | -130.56108 | 34258 ft | 499 kts | 248° |
| 2026-05-06 05:06 | 35.31721 | -130.63995 | 34258 ft | 498 kts | 248° |
| 2026-05-06 05:06 | 35.29135 | -130.71851 | 34260 ft | 498 kts | 248° |
| 2026-05-06 05:07 | 35.26556 | -130.79666 | 34263 ft | 498 kts | 248° |
| 2026-05-06 05:07 | 35.23961 | -130.87507 | 34261 ft | 498 kts | 248° |
| 2026-05-06 05:08 | 35.21354 | -130.95365 | 34259 ft | 497 kts | 248° |
| 2026-05-06 05:08 | 35.18750 | -131.03192 | 34265 ft | 497 kts | 248° |
| 2026-05-06 05:09 | 35.16140 | -131.11021 | 34262 ft | 497 kts | 248° |
| 2026-05-06 05:09 | 35.13520 | -131.18853 | 34267 ft | 497 kts | 248° |
| 2026-05-06 05:10 | 35.10903 | -131.26663 | 34264 ft | 497 kts | 248° |
| 2026-05-06 05:10 | 35.08281 | -131.34465 | 34267 ft | 496 kts | 248° |
| 2026-05-06 05:11 | 35.05678 | -131.42189 | 34269 ft | 496 kts | 249° |
| 2026-05-06 05:11 | 35.03048 | -131.49980 | 34274 ft | 495 kts | 249° |
| 2026-05-06 05:12 | 35.00419 | -131.57743 | 34266 ft | 494 kts | 249° |
| 2026-05-06 05:12 | 34.97793 | -131.65477 | 34278 ft | 493 kts | 249° |
| 2026-05-06 05:13 | 34.95168 | -131.73191 | 34275 ft | 492 kts | 249° |
| 2026-05-06 05:13 | 34.92560 | -131.80833 | 34269 ft | 491 kts | 250° |
| 2026-05-06 05:14 | 34.89933 | -131.88514 | 34278 ft | 490 kts | 250° |
| 2026-05-06 05:14 | 34.87308 | -131.96174 | 34277 ft | 489 kts | 250° |
| 2026-05-06 05:15 | 34.84673 | -132.03835 | 34278 ft | 489 kts | 250° |
| 2026-05-06 05:15 | 34.82048 | -132.11459 | 34285 ft | 488 kts | 250° |
| 2026-05-06 05:16 | 34.79414 | -132.19084 | 34279 ft | 488 kts | 250° |
| 2026-05-06 05:16 | 34.76798 | -132.26639 | 34292 ft | 488 kts | 250° |
| 2026-05-06 05:17 | 34.74157 | -132.34249 | 34296 ft | 487 kts | 250° |
| 2026-05-06 05:17 | 34.71517 | -132.41839 | 34275 ft | 487 kts | 251° |
| 2026-05-06 05:18 | 34.68871 | -132.49425 | 34287 ft | 487 kts | 251° |
| 2026-05-06 05:18 | 34.66223 | -132.56999 | 34289 ft | 487 kts | 250° |
| 2026-05-06 05:19 | 34.63567 | -132.64575 | 34275 ft | 487 kts | 251° |
| 2026-05-06 05:19 | 34.60909 | -132.72144 | 34288 ft | 487 kts | 251° |
| 2026-05-06 05:20 | 34.58265 | -132.79653 | 34291 ft | 487 kts | 251° |
| 2026-05-06 05:20 | 34.55595 | -132.87219 | 34287 ft | 487 kts | 251° |
| 2026-05-06 05:21 | 34.52924 | -132.94767 | 34289 ft | 487 kts | 251° |
| 2026-05-06 05:21 | 34.50244 | -133.02324 | 34283 ft | 487 kts | 251° |
| 2026-05-06 05:22 | 34.47562 | -133.09868 | 34288 ft | 487 kts | 251° |
| 2026-05-06 05:22 | 34.44870 | -133.17423 | 34292 ft | 487 kts | 251° |
| 2026-05-06 05:23 | 34.42179 | -133.24957 | 34280 ft | 487 kts | 251° |
| 2026-05-06 05:23 | 34.38154 | -133.36193 | 34294 ft | 487 kts | 251° |
| 2026-05-06 05:24 | 34.35457 | -133.43700 | 34284 ft | 487 kts | 251° |
| 2026-05-06 05:24 | 34.32752 | -133.51210 | 34296 ft | 486 kts | 251° |
| 2026-05-06 05:25 | 34.30044 | -133.58712 | 34295 ft | 486 kts | 251° |
| 2026-05-06 05:25 | 34.27340 | -133.66187 | 34285 ft | 486 kts | 251° |
| 2026-05-06 05:26 | 34.24627 | -133.73667 | 34294 ft | 485 kts | 251° |
| 2026-05-06 05:26 | 34.21912 | -133.81139 | 34299 ft | 485 kts | 251° |
| 2026-05-06 05:27 | 34.19212 | -133.88548 | 34298 ft | 484 kts | 251° |
| 2026-05-06 05:27 | 34.16492 | -133.95998 | 34299 ft | 484 kts | 251° |
| 2026-05-06 05:28 | 34.13772 | -134.03431 | 34286 ft | 483 kts | 251° |
| 2026-05-06 05:28 | 34.11051 | -134.10849 | 34296 ft | 482 kts | 251° |
| 2026-05-06 05:29 | 34.08330 | -134.18250 | 34298 ft | 482 kts | 251° |
| 2026-05-06 05:29 | 34.05613 | -134.25625 | 34291 ft | 481 kts | 250° |
| 2026-05-06 05:30 | 34.02909 | -134.32951 | 34300 ft | 480 kts | 250° |
| 2026-05-06 05:30 | 34.00189 | -134.40298 | 34299 ft | 480 kts | 250° |
| 2026-05-06 05:31 | 33.97464 | -134.47643 | 34314 ft | 479 kts | 250° |
| 2026-05-06 05:31 | 33.94741 | -134.54973 | 34313 ft | 479 kts | 250° |
| 2026-05-06 05:32 | 33.92014 | -134.62299 | 34284 ft | 479 kts | 250° |
| 2026-05-06 05:32 | 33.89288 | -134.69603 | 34308 ft | 478 kts | 250° |
| 2026-05-06 05:33 | 33.86550 | -134.76927 | 34306 ft | 479 kts | 250° |
| 2026-05-06 05:33 | 33.84276 | -134.82994 | 34301 ft | 479 kts | 250° |
| 2026-05-06 05:34 | 33.81089 | -134.91481 | 34307 ft | 479 kts | 250° |
| 2026-05-06 05:34 | 33.78800 | -134.97565 | 34307 ft | 479 kts | 250° |
| 2026-05-06 05:35 | 33.76046 | -135.04866 | 34299 ft | 479 kts | 249° |
| 2026-05-06 05:35 | 33.73287 | -135.12165 | 34310 ft | 480 kts | 249° |
| 2026-05-06 05:36 | 33.70518 | -135.19476 | 34289 ft | 480 kts | 249° |
| 2026-05-06 05:36 | 33.67750 | -135.26767 | 34302 ft | 480 kts | 249° |
| 2026-05-06 05:37 | 33.64978 | -135.34052 | 34306 ft | 480 kts | 249° |
| 2026-05-06 05:37 | 33.62202 | -135.41332 | 34306 ft | 480 kts | 249° |
| 2026-05-06 05:38 | 33.59419 | -135.48615 | 34306 ft | 480 kts | 249° |
| 2026-05-06 05:38 | 33.56634 | -135.55889 | 34311 ft | 480 kts | 249° |
| 2026-05-06 05:39 | 33.53865 | -135.63104 | 34311 ft | 479 kts | 249° |
| 2026-05-06 05:39 | 33.51075 | -135.70358 | 34306 ft | 479 kts | 249° |
| 2026-05-06 05:40 | 33.48276 | -135.77618 | 34307 ft | 479 kts | 248° |
| 2026-05-06 05:40 | 33.45477 | -135.84864 | 34309 ft | 479 kts | 248° |
| 2026-05-06 05:41 | 33.42678 | -135.92094 | 34308 ft | 478 kts | 248° |
| 2026-05-06 05:41 | 33.39895 | -135.99270 | 34312 ft | 478 kts | 248° |
| 2026-05-06 05:42 | 33.37090 | -136.06485 | 34313 ft | 478 kts | 248° |
| 2026-05-06 05:42 | 33.34277 | -136.13705 | 34305 ft | 477 kts | 248° |
| 2026-05-06 05:43 | 33.31471 | -136.20894 | 34317 ft | 477 kts | 247° |
| 2026-05-06 05:43 | 33.28660 | -136.28076 | 34314 ft | 477 kts | 247° |
| 2026-05-06 05:44 | 33.25858 | -136.35223 | 34308 ft | 477 kts | 247° |
| 2026-05-06 05:44 | 33.23042 | -136.42390 | 34317 ft | 476 kts | 247° |
| 2026-05-06 05:45 | 33.20227 | -136.49541 | 34314 ft | 476 kts | 247° |
| 2026-05-06 05:45 | 33.17408 | -136.56685 | 34316 ft | 476 kts | 247° |
| 2026-05-06 05:46 | 33.14586 | -136.63822 | 34319 ft | 475 kts | 246° |
| 2026-05-06 05:46 | 33.11762 | -136.70950 | 34317 ft | 475 kts | 246° |
| 2026-05-06 05:47 | 33.08940 | -136.78059 | 34315 ft | 474 kts | 246° |
| 2026-05-06 05:47 | 33.06113 | -136.85164 | 34309 ft | 474 kts | 246° |
| 2026-05-06 05:48 | 33.03301 | -136.92218 | 34316 ft | 474 kts | 246° |
| 2026-05-06 05:48 | 33.00463 | -136.99322 | 34316 ft | 474 kts | 246° |
| 2026-05-06 05:49 | 32.97624 | -137.06414 | 34313 ft | 474 kts | 246° |
| 2026-05-06 05:49 | 32.94795 | -137.13467 | 34316 ft | 474 kts | 246° |
| 2026-05-06 05:50 | 32.91951 | -137.20543 | 34321 ft | 474 kts | 246° |
| 2026-05-06 05:50 | 32.89104 | -137.27610 | 34315 ft | 474 kts | 246° |
| 2026-05-06 05:51 | 32.86249 | -137.34684 | 34317 ft | 474 kts | 246° |
| 2026-05-06 05:51 | 32.83391 | -137.41753 | 34323 ft | 474 kts | 246° |
| 2026-05-06 05:52 | 32.80530 | -137.48812 | 34318 ft | 474 kts | 246° |
| 2026-05-06 05:52 | 32.77664 | -137.55870 | 34315 ft | 474 kts | 246° |
| 2026-05-06 05:53 | 32.74793 | -137.62926 | 34321 ft | 474 kts | 246° |
| 2026-05-06 05:53 | 32.71941 | -137.69920 | 34320 ft | 473 kts | 245° |
| 2026-05-06 05:54 | 32.69064 | -137.76962 | 34319 ft | 473 kts | 245° |
| 2026-05-06 05:54 | 32.66190 | -137.83983 | 34318 ft | 473 kts | 245° |
| 2026-05-06 05:55 | 32.63308 | -137.91011 | 34319 ft | 473 kts | 245° |
| 2026-05-06 05:55 | 32.60433 | -137.98007 | 34318 ft | 473 kts | 245° |
| 2026-05-06 05:56 | 32.57548 | -138.05011 | 34312 ft | 473 kts | 245° |
| 2026-05-06 05:56 | 32.54655 | -138.12023 | 34318 ft | 473 kts | 245° |
| 2026-05-06 05:57 | 32.51758 | -138.19029 | 34321 ft | 473 kts | 245° |
| 2026-05-06 05:57 | 32.48860 | -138.26026 | 34324 ft | 473 kts | 245° |
| 2026-05-06 05:58 | 32.45976 | -138.32973 | 34317 ft | 473 kts | 245° |
| 2026-05-06 05:58 | 32.43049 | -138.40011 | 34320 ft | 473 kts | 245° |
| 2026-05-06 05:59 | 32.40158 | -138.46949 | 34325 ft | 473 kts | 245° |
| 2026-05-06 05:59 | 32.37234 | -138.53952 | 34312 ft | 474 kts | 245° |
| 2026-05-06 06:00 | 32.34307 | -138.60947 | 34320 ft | 474 kts | 245° |
| 2026-05-06 06:00 | 32.31382 | -138.67924 | 34328 ft | 474 kts | 245° |
| 2026-05-06 06:01 | 32.28448 | -138.74910 | 34324 ft | 474 kts | 245° |
| 2026-05-06 06:01 | 32.25531 | -138.81841 | 34317 ft | 474 kts | 245° |
| 2026-05-06 06:02 | 32.22587 | -138.88823 | 34324 ft | 474 kts | 245° |
| 2026-05-06 06:02 | 32.19642 | -138.95795 | 34321 ft | 474 kts | 245° |
| 2026-05-06 06:03 | 32.16687 | -139.02777 | 34321 ft | 475 kts | 245° |
| 2026-05-06 06:03 | 32.13732 | -139.09745 | 34320 ft | 475 kts | 245° |
| 2026-05-06 06:04 | 32.10771 | -139.16711 | 34319 ft | 475 kts | 245° |
| 2026-05-06 06:04 | 32.07821 | -139.23640 | 34318 ft | 475 kts | 245° |
| 2026-05-06 06:05 | 32.04852 | -139.30600 | 34312 ft | 475 kts | 245° |
| 2026-05-06 06:05 | 32.01882 | -139.37549 | 34316 ft | 475 kts | 245° |
| 2026-05-06 06:06 | 31.98901 | -139.44509 | 34315 ft | 475 kts | 244° |
| 2026-05-06 06:06 | 31.95929 | -139.51436 | 34318 ft | 475 kts | 244° |
| 2026-05-06 06:07 | 31.92941 | -139.58387 | 34311 ft | 475 kts | 244° |
| 2026-05-06 06:07 | 31.89954 | -139.65324 | 34310 ft | 475 kts | 244° |
| 2026-05-06 06:08 | 31.86961 | -139.72258 | 34306 ft | 475 kts | 244° |
| 2026-05-06 06:08 | 31.83962 | -139.79196 | 34304 ft | 475 kts | 244° |
| 2026-05-06 06:09 | 31.80960 | -139.86125 | 34307 ft | 475 kts | 244° |
| 2026-05-06 06:09 | 31.77956 | -139.93047 | 34312 ft | 475 kts | 244° |
| 2026-05-06 06:10 | 31.74947 | -139.99967 | 34310 ft | 476 kts | 244° |
| 2026-05-06 06:10 | 31.71930 | -140.06893 | 34308 ft | 476 kts | 244° |
| 2026-05-06 06:11 | 31.68933 | -140.13760 | 34306 ft | 476 kts | 244° |
| 2026-05-06 06:11 | 31.65910 | -140.20672 | 34307 ft | 476 kts | 244° |
| 2026-05-06 06:12 | 31.62887 | -140.27574 | 34306 ft | 475 kts | 244° |
| 2026-05-06 06:12 | 31.59861 | -140.34467 | 34295 ft | 475 kts | 244° |
| 2026-05-06 06:13 | 31.56825 | -140.41371 | 34305 ft | 475 kts | 244° |
| 2026-05-06 06:13 | 31.53802 | -140.48233 | 34307 ft | 475 kts | 244° |
| 2026-05-06 06:14 | 31.50760 | -140.55125 | 34305 ft | 475 kts | 244° |
| 2026-05-06 06:14 | 31.47723 | -140.61993 | 34295 ft | 475 kts | 244° |
| 2026-05-06 06:15 | 31.44696 | -140.68824 | 34306 ft | 475 kts | 244° |
| 2026-05-06 06:15 | 31.41648 | -140.75693 | 34305 ft | 475 kts | 244° |
| 2026-05-06 06:16 | 31.38597 | -140.82554 | 34303 ft | 475 kts | 243° |
| 2026-05-06 06:16 | 31.35546 | -140.89402 | 34300 ft | 474 kts | 243° |
| 2026-05-06 06:17 | 31.32507 | -140.96212 | 34297 ft | 474 kts | 243° |
| 2026-05-06 06:17 | 31.29434 | -141.03086 | 34296 ft | 474 kts | 243° |
| 2026-05-06 06:18 | 31.26392 | -141.09878 | 34295 ft | 474 kts | 243° |
| 2026-05-06 06:18 | 31.23328 | -141.16707 | 34311 ft | 474 kts | 243° |
| 2026-05-06 06:19 | 31.20260 | -141.23533 | 34306 ft | 474 kts | 243° |
| 2026-05-06 06:19 | 31.17190 | -141.30351 | 34292 ft | 474 kts | 243° |
| 2026-05-06 06:20 | 31.14110 | -141.37164 | 34291 ft | 474 kts | 243° |
| 2026-05-06 06:20 | 31.11546 | -141.42825 | 34298 ft | 474 kts | 243° |
| 2026-05-06 06:21 | 31.07956 | -141.50741 | 34288 ft | 474 kts | 243° |
| 2026-05-06 06:21 | 31.04871 | -141.57533 | 34285 ft | 474 kts | 243° |
| 2026-05-06 06:22 | 31.02282 | -141.63224 | 34281 ft | 474 kts | 243° |
| 2026-05-06 06:22 | 30.99204 | -141.69979 | 34291 ft | 474 kts | 243° |
| 2026-05-06 06:23 | 30.96101 | -141.76777 | 34292 ft | 474 kts | 243° |
| 2026-05-06 06:23 | 30.93000 | -141.83558 | 34289 ft | 474 kts | 243° |
| 2026-05-06 06:24 | 30.89894 | -141.90336 | 34281 ft | 474 kts | 243° |
| 2026-05-06 06:24 | 30.86791 | -141.97099 | 34272 ft | 473 kts | 243° |
| 2026-05-06 06:25 | 30.83705 | -142.03810 | 34284 ft | 473 kts | 243° |
| 2026-05-06 06:26 | 30.79043 | -142.13927 | 34275 ft | 472 kts | 243° |
| 2026-05-06 06:26 | 30.75937 | -142.20654 | 34263 ft | 472 kts | 243° |
| 2026-05-06 06:27 | 30.72827 | -142.27376 | 34283 ft | 471 kts | 243° |
| 2026-05-06 06:27 | 30.69721 | -142.34079 | 34279 ft | 470 kts | 243° |
| 2026-05-06 06:28 | 30.66632 | -142.40732 | 34271 ft | 470 kts | 243° |
| 2026-05-06 06:28 | 30.63527 | -142.47408 | 34268 ft | 469 kts | 243° |
| 2026-05-06 06:29 | 30.60423 | -142.54071 | 34272 ft | 468 kts | 243° |
| 2026-05-06 06:29 | 30.57324 | -142.60713 | 34265 ft | 468 kts | 243° |
| 2026-05-06 06:30 | 30.54215 | -142.67363 | 34266 ft | 468 kts | 243° |
| 2026-05-06 06:30 | 30.51106 | -142.74001 | 34269 ft | 468 kts | 243° |
| 2026-05-06 06:31 | 30.48000 | -142.80623 | 34268 ft | 468 kts | 243° |
| 2026-05-06 06:31 | 30.44888 | -142.87246 | 34266 ft | 468 kts | 243° |
| 2026-05-06 06:32 | 30.41773 | -142.93863 | 34252 ft | 468 kts | 243° |
| 2026-05-06 06:32 | 30.38667 | -143.00452 | 34265 ft | 468 kts | 243° |
| 2026-05-06 06:33 | 30.35556 | -143.07038 | 34258 ft | 468 kts | 243° |
| 2026-05-06 06:33 | 30.32424 | -143.13657 | 34258 ft | 468 kts | 243° |
| 2026-05-06 06:34 | 30.29289 | -143.20273 | 34256 ft | 468 kts | 243° |
| 2026-05-06 06:34 | 30.26155 | -143.26874 | 34260 ft | 468 kts | 243° |
| 2026-05-06 06:35 | 30.23015 | -143.33478 | 34249 ft | 468 kts | 243° |
| 2026-05-06 06:35 | 30.19871 | -143.40078 | 34252 ft | 468 kts | 243° |
| 2026-05-06 06:36 | 30.16726 | -143.46670 | 34247 ft | 468 kts | 242° |
| 2026-05-06 06:36 | 30.13596 | -143.53218 | 34251 ft | 468 kts | 242° |
| 2026-05-06 06:37 | 30.10447 | -143.59796 | 34241 ft | 468 kts | 242° |
| 2026-05-06 06:37 | 30.07295 | -143.66370 | 34242 ft | 468 kts | 242° |
| 2026-05-06 06:38 | 30.04141 | -143.72935 | 34241 ft | 468 kts | 242° |
| 2026-05-06 06:38 | 30.00976 | -143.79514 | 34246 ft | 468 kts | 242° |
| 2026-05-06 06:39 | 29.97830 | -143.86041 | 34239 ft | 468 kts | 242° |
| 2026-05-06 06:39 | 29.94666 | -143.92595 | 34231 ft | 468 kts | 242° |
| 2026-05-06 06:40 | 29.91494 | -143.99156 | 34237 ft | 467 kts | 242° |
| 2026-05-06 06:40 | 29.88346 | -144.05655 | 34238 ft | 467 kts | 242° |
| 2026-05-06 06:41 | 29.85166 | -144.12209 | 34233 ft | 467 kts | 242° |
| 2026-05-06 06:41 | 29.81991 | -144.18743 | 34231 ft | 467 kts | 242° |
| 2026-05-06 06:42 | 29.78812 | -144.25274 | 34235 ft | 467 kts | 242° |
| 2026-05-06 06:42 | 29.75625 | -144.31809 | 34232 ft | 467 kts | 242° |
| 2026-05-06 06:43 | 29.72463 | -144.38284 | 34230 ft | 467 kts | 242° |
| 2026-05-06 06:43 | 29.69276 | -144.44800 | 34226 ft | 467 kts | 242° |
| 2026-05-06 06:44 | 29.66089 | -144.51305 | 34219 ft | 466 kts | 242° |
| 2026-05-06 06:44 | 29.62901 | -144.57801 | 34223 ft | 466 kts | 242° |
| 2026-05-06 06:45 | 29.59712 | -144.64287 | 34225 ft | 466 kts | 242° |
| 2026-05-06 06:45 | 29.56533 | -144.70746 | 34219 ft | 466 kts | 242° |
| 2026-05-06 06:46 | 29.53338 | -144.77225 | 34223 ft | 466 kts | 242° |
| 2026-05-06 06:46 | 29.50147 | -144.83685 | 34216 ft | 466 kts | 242° |
| 2026-05-06 06:47 | 29.46945 | -144.90156 | 34215 ft | 465 kts | 242° |
| 2026-05-06 06:47 | 29.43743 | -144.96618 | 34212 ft | 465 kts | 242° |
| 2026-05-06 06:48 | 29.40557 | -145.03038 | 34212 ft | 465 kts | 242° |
| 2026-05-06 06:48 | 29.37353 | -145.09482 | 34204 ft | 465 kts | 242° |
| 2026-05-06 06:49 | 29.34147 | -145.15922 | 34207 ft | 465 kts | 242° |
| 2026-05-06 06:49 | 29.30940 | -145.22352 | 34210 ft | 464 kts | 242° |
| 2026-05-06 06:50 | 29.27734 | -145.28770 | 34209 ft | 464 kts | 242° |
| 2026-05-06 06:50 | 29.24519 | -145.35197 | 34205 ft | 464 kts | 242° |
| 2026-05-06 06:51 | 29.21304 | -145.41613 | 34197 ft | 464 kts | 242° |
| 2026-05-06 06:51 | 29.18105 | -145.47987 | 34205 ft | 464 kts | 242° |
| 2026-05-06 06:52 | 29.14886 | -145.54391 | 34206 ft | 464 kts | 242° |
| 2026-05-06 06:52 | 29.11665 | -145.60789 | 34200 ft | 464 kts | 242° |
| 2026-05-06 06:53 | 29.08435 | -145.67195 | 34204 ft | 464 kts | 242° |
| 2026-05-06 06:53 | 29.05210 | -145.73581 | 34198 ft | 464 kts | 242° |
| 2026-05-06 06:54 | 29.01985 | -145.79957 | 34201 ft | 463 kts | 242° |
| 2026-05-06 06:54 | 28.98782 | -145.86279 | 34198 ft | 463 kts | 242° |
| 2026-05-06 06:55 | 28.95557 | -145.92634 | 34195 ft | 462 kts | 242° |
| 2026-05-06 06:55 | 28.92321 | -145.99002 | 34185 ft | 462 kts | 242° |
| 2026-05-06 06:56 | 28.89089 | -146.05354 | 34189 ft | 462 kts | 242° |
| 2026-05-06 06:56 | 28.85857 | -146.11693 | 34190 ft | 462 kts | 242° |
| 2026-05-06 06:57 | 28.82622 | -146.18031 | 34191 ft | 463 kts | 242° |
| 2026-05-06 06:57 | 28.79398 | -146.24336 | 34187 ft | 463 kts | 242° |
| 2026-05-06 06:58 | 28.76150 | -146.30678 | 34193 ft | 463 kts | 242° |
| 2026-05-06 06:58 | 28.72892 | -146.37030 | 34188 ft | 463 kts | 242° |
| 2026-05-06 06:59 | 28.69635 | -146.43371 | 34181 ft | 464 kts | 242° |
| 2026-05-06 06:59 | 28.66378 | -146.49701 | 34180 ft | 463 kts | 242° |
| 2026-05-06 07:00 | 28.63132 | -146.56003 | 34184 ft | 463 kts | 242° |
| 2026-05-06 07:00 | 28.59869 | -146.62326 | 34178 ft | 463 kts | 242° |
| 2026-05-06 07:01 | 28.56603 | -146.68644 | 34182 ft | 463 kts | 242° |
| 2026-05-06 07:01 | 28.53331 | -146.74966 | 34173 ft | 463 kts | 242° |
| 2026-05-06 07:02 | 28.50064 | -146.81268 | 34175 ft | 463 kts | 242° |
| 2026-05-06 07:02 | 28.46794 | -146.87567 | 34183 ft | 462 kts | 241° |
| 2026-05-06 07:03 | 28.43523 | -146.93859 | 34156 ft | 462 kts | 242° |
| 2026-05-06 07:03 | 28.40248 | -147.00148 | 34170 ft | 462 kts | 241° |
| 2026-05-06 07:04 | 28.36996 | -147.06384 | 34167 ft | 462 kts | 241° |
| 2026-05-06 07:04 | 28.33722 | -147.12652 | 34174 ft | 461 kts | 241° |
| 2026-05-06 07:05 | 28.30441 | -147.18925 | 34166 ft | 461 kts | 241° |
| 2026-05-06 07:05 | 28.27165 | -147.25180 | 34159 ft | 461 kts | 241° |
| 2026-05-06 07:06 | 28.23883 | -147.31436 | 34158 ft | 461 kts | 241° |
| 2026-05-06 07:06 | 28.20598 | -147.37689 | 34162 ft | 461 kts | 241° |
| 2026-05-06 07:07 | 28.17862 | -147.42888 | 34161 ft | 461 kts | 241° |
| 2026-05-06 07:07 | 28.14040 | -147.50144 | 34159 ft | 462 kts | 241° |
| 2026-05-06 07:08 | 28.10745 | -147.56388 | 34144 ft | 462 kts | 241° |
| 2026-05-06 07:08 | 28.07976 | -147.61627 | 34153 ft | 462 kts | 241° |
| 2026-05-06 07:09 | 28.04670 | -147.67876 | 34162 ft | 462 kts | 241° |
| 2026-05-06 07:09 | 28.01383 | -147.74080 | 34153 ft | 462 kts | 241° |
| 2026-05-06 07:10 | 27.98073 | -147.80318 | 34153 ft | 462 kts | 241° |
| 2026-05-06 07:10 | 27.94759 | -147.86555 | 34149 ft | 462 kts | 241° |
| 2026-05-06 07:11 | 27.91437 | -147.92799 | 34149 ft | 462 kts | 241° |
| 2026-05-06 07:11 | 27.88133 | -147.98996 | 34147 ft | 462 kts | 241° |
| 2026-05-06 07:12 | 27.84803 | -148.05228 | 34148 ft | 462 kts | 241° |
| 2026-05-06 07:12 | 27.81471 | -148.11455 | 34142 ft | 462 kts | 241° |
| 2026-05-06 07:13 | 27.78141 | -148.17671 | 34147 ft | 462 kts | 241° |
| 2026-05-06 07:13 | 27.74832 | -148.23842 | 34139 ft | 462 kts | 241° |
| 2026-05-06 07:14 | 27.71498 | -148.30048 | 34140 ft | 462 kts | 241° |
| 2026-05-06 07:14 | 27.68163 | -148.36249 | 34132 ft | 462 kts | 241° |
| 2026-05-06 07:15 | 27.64828 | -148.42442 | 34138 ft | 461 kts | 241° |
| 2026-05-06 07:15 | 27.61493 | -148.48624 | 34137 ft | 461 kts | 241° |
| 2026-05-06 07:16 | 27.58153 | -148.54808 | 34126 ft | 461 kts | 241° |
| 2026-05-06 07:16 | 27.54807 | -148.60993 | 34134 ft | 462 kts | 241° |
| 2026-05-06 07:17 | 27.51479 | -148.67138 | 34120 ft | 462 kts | 241° |
| 2026-05-06 07:17 | 27.48126 | -148.73317 | 34132 ft | 462 kts | 241° |
| 2026-05-06 07:18 | 27.44770 | -148.79495 | 34139 ft | 462 kts | 241° |
| 2026-05-06 07:18 | 27.41418 | -148.85656 | 34120 ft | 462 kts | 241° |
| 2026-05-06 07:19 | 27.38077 | -148.91789 | 34121 ft | 462 kts | 241° |
| 2026-05-06 07:19 | 27.34713 | -148.97955 | 34117 ft | 462 kts | 241° |
| 2026-05-06 07:20 | 27.31345 | -149.04120 | 34122 ft | 462 kts | 241° |
| 2026-05-06 07:20 | 27.27964 | -149.10300 | 34119 ft | 463 kts | 241° |
| 2026-05-06 07:21 | 27.24591 | -149.16457 | 34109 ft | 463 kts | 240° |
| 2026-05-06 07:21 | 27.21231 | -149.22580 | 34124 ft | 463 kts | 240° |
| 2026-05-06 07:22 | 27.17846 | -149.28741 | 34121 ft | 463 kts | 240° |
| 2026-05-06 07:22 | 27.14464 | -149.34888 | 34108 ft | 463 kts | 240° |
| 2026-05-06 07:23 | 27.11069 | -149.41052 | 34120 ft | 464 kts | 240° |
| 2026-05-06 07:23 | 27.07675 | -149.47202 | 34122 ft | 464 kts | 240° |
| 2026-05-06 07:24 | 27.04276 | -149.53355 | 34116 ft | 464 kts | 240° |
| 2026-05-06 07:24 | 27.00874 | -149.59504 | 34114 ft | 464 kts | 240° |
| 2026-05-06 07:25 | 26.97462 | -149.65663 | 34116 ft | 464 kts | 240° |
| 2026-05-06 07:25 | 26.94046 | -149.71820 | 34115 ft | 465 kts | 240° |
| 2026-05-06 07:26 | 26.90645 | -149.77942 | 34114 ft | 465 kts | 240° |
| 2026-05-06 07:26 | 26.87222 | -149.84094 | 34107 ft | 465 kts | 240° |
| 2026-05-06 07:27 | 26.83801 | -149.90235 | 34111 ft | 465 kts | 240° |
| 2026-05-06 07:27 | 26.80374 | -149.96378 | 34112 ft | 465 kts | 240° |
| 2026-05-06 07:28 | 26.76941 | -150.02522 | 34111 ft | 465 kts | 240° |
| 2026-05-06 07:28 | 26.71805 | -150.11701 | 34106 ft | 466 kts | 240° |
| 2026-05-06 07:29 | 26.68364 | -150.17840 | 34108 ft | 466 kts | 240° |
| 2026-05-06 07:29 | 26.64915 | -150.23984 | 34110 ft | 466 kts | 240° |
| 2026-05-06 07:30 | 26.61467 | -150.30119 | 34106 ft | 466 kts | 240° |
| 2026-05-06 07:30 | 26.58017 | -150.36248 | 34109 ft | 466 kts | 240° |
| 2026-05-06 07:31 | 26.54556 | -150.42387 | 34107 ft | 467 kts | 240° |
| 2026-05-06 07:31 | 26.51095 | -150.48520 | 34093 ft | 467 kts | 240° |
| 2026-05-06 07:32 | 26.47652 | -150.54611 | 34102 ft | 466 kts | 240° |
| 2026-05-06 07:32 | 26.44184 | -150.60740 | 34104 ft | 467 kts | 240° |
| 2026-05-06 07:33 | 26.40713 | -150.66865 | 34105 ft | 467 kts | 240° |
| 2026-05-06 07:33 | 26.37244 | -150.72978 | 34104 ft | 467 kts | 240° |
| 2026-05-06 07:34 | 26.33762 | -150.79105 | 34104 ft | 467 kts | 240° |
| 2026-05-06 07:34 | 26.30283 | -150.85219 | 34098 ft | 467 kts | 240° |
| 2026-05-06 07:35 | 26.26800 | -150.91333 | 34104 ft | 467 kts | 240° |
| 2026-05-06 07:35 | 26.23313 | -150.97445 | 34103 ft | 467 kts | 240° |
| 2026-05-06 07:36 | 26.19823 | -151.03554 | 34100 ft | 468 kts | 240° |
| 2026-05-06 07:36 | 26.16324 | -151.09670 | 34103 ft | 468 kts | 240° |
| 2026-05-06 07:37 | 26.12849 | -151.15735 | 34084 ft | 467 kts | 240° |
| 2026-05-06 07:37 | 26.09347 | -151.21841 | 34104 ft | 467 kts | 240° |
| 2026-05-06 07:38 | 26.05844 | -151.27940 | 34101 ft | 467 kts | 240° |
| 2026-05-06 07:38 | 26.02344 | -151.34026 | 34108 ft | 468 kts | 240° |
| 2026-05-06 07:39 | 25.98829 | -151.40129 | 34103 ft | 468 kts | 240° |
| 2026-05-06 07:39 | 25.95318 | -151.46219 | 34102 ft | 468 kts | 240° |
| 2026-05-06 07:40 | 25.91819 | -151.52278 | 34092 ft | 468 kts | 240° |
| 2026-05-06 07:40 | 25.88307 | -151.58353 | 34098 ft | 468 kts | 240° |
| 2026-05-06 07:41 | 25.84783 | -151.64440 | 34102 ft | 468 kts | 240° |
| 2026-05-06 07:41 | 25.81254 | -151.70527 | 34101 ft | 468 kts | 240° |
| 2026-05-06 07:42 | 25.77729 | -151.76600 | 34101 ft | 468 kts | 240° |
| 2026-05-06 07:42 | 25.74195 | -151.82680 | 34101 ft | 468 kts | 240° |
| 2026-05-06 07:43 | 25.70661 | -151.88753 | 34099 ft | 468 kts | 240° |
| 2026-05-06 07:43 | 25.67149 | -151.94779 | 34097 ft | 468 kts | 240° |
| 2026-05-06 07:44 | 25.63614 | -152.00839 | 34102 ft | 468 kts | 240° |
| 2026-05-06 07:44 | 25.60076 | -152.06894 | 34101 ft | 468 kts | 240° |
| 2026-05-06 07:45 | 25.56534 | -152.12948 | 34101 ft | 468 kts | 240° |
| 2026-05-06 07:45 | 25.52986 | -152.19006 | 34101 ft | 468 kts | 240° |
| 2026-05-06 07:46 | 25.49454 | -152.25028 | 34100 ft | 469 kts | 240° |
| 2026-05-06 07:46 | 25.45900 | -152.31080 | 34101 ft | 469 kts | 240° |
| 2026-05-06 07:47 | 25.42336 | -152.37141 | 34103 ft | 469 kts | 240° |
| 2026-05-06 07:47 | 25.38788 | -152.43166 | 34104 ft | 469 kts | 240° |
| 2026-05-06 07:48 | 25.35213 | -152.49231 | 34101 ft | 469 kts | 239° |
| 2026-05-06 07:48 | 25.31646 | -152.55273 | 34091 ft | 469 kts | 239° |
| 2026-05-06 07:49 | 25.28071 | -152.61322 | 34103 ft | 470 kts | 239° |
| 2026-05-06 07:49 | 25.24518 | -152.67325 | 34101 ft | 470 kts | 239° |
| 2026-05-06 07:50 | 25.20933 | -152.73376 | 34101 ft | 470 kts | 239° |
| 2026-05-06 07:50 | 25.17345 | -152.79424 | 34101 ft | 470 kts | 239° |
| 2026-05-06 07:51 | 25.13754 | -152.85467 | 34103 ft | 470 kts | 239° |
| 2026-05-06 07:51 | 25.10156 | -152.91517 | 34091 ft | 470 kts | 239° |
| 2026-05-06 07:52 | 25.06581 | -152.97519 | 34103 ft | 471 kts | 239° |
| 2026-05-06 07:52 | 25.02983 | -153.03553 | 34100 ft | 471 kts | 239° |
| 2026-05-06 07:53 | 24.99379 | -153.09589 | 34102 ft | 471 kts | 239° |
| 2026-05-06 07:53 | 24.96378 | -153.14609 | 34099 ft | 471 kts | 239° |
| 2026-05-06 07:54 | 24.92769 | -153.20639 | 34101 ft | 471 kts | 239° |
| 2026-05-06 07:54 | 24.89153 | -153.26673 | 34089 ft | 471 kts | 239° |
| 2026-05-06 07:55 | 24.85555 | -153.32671 | 34100 ft | 471 kts | 239° |
| 2026-05-06 07:55 | 24.81941 | -153.38687 | 34097 ft | 472 kts | 239° |
| 2026-05-06 07:56 | 24.78313 | -153.44719 | 34096 ft | 472 kts | 239° |
| 2026-05-06 07:56 | 24.74686 | -153.50741 | 34098 ft | 472 kts | 239° |
| 2026-05-06 07:57 | 24.71053 | -153.56766 | 34100 ft | 472 kts | 239° |
| 2026-05-06 07:57 | 24.67419 | -153.62785 | 34097 ft | 472 kts | 239° |
| 2026-05-06 07:58 | 24.63775 | -153.68814 | 34097 ft | 473 kts | 239° |
| 2026-05-06 07:58 | 24.60134 | -153.74830 | 34089 ft | 473 kts | 239° |
| 2026-05-06 07:59 | 24.56510 | -153.80811 | 34097 ft | 473 kts | 239° |
| 2026-05-06 07:59 | 24.52858 | -153.86829 | 34091 ft | 473 kts | 239° |
| 2026-05-06 08:00 | 24.49198 | -153.92854 | 34100 ft | 474 kts | 239° |
| 2026-05-06 08:00 | 24.45540 | -153.98869 | 34090 ft | 473 kts | 239° |
| 2026-05-06 08:01 | 24.41884 | -154.04874 | 34094 ft | 473 kts | 239° |
| 2026-05-06 08:01 | 24.38223 | -154.10879 | 34096 ft | 473 kts | 239° |
| 2026-05-06 08:02 | 24.34555 | -154.16889 | 34095 ft | 474 kts | 239° |
| 2026-05-06 08:02 | 24.30885 | -154.22897 | 34097 ft | 474 kts | 239° |
| 2026-05-06 08:03 | 24.27202 | -154.28896 | 34095 ft | 474 kts | 238° |
| 2026-05-06 08:03 | 24.23517 | -154.34848 | 34089 ft | 474 kts | 238° |
| 2026-05-06 08:04 | 24.19813 | -154.40823 | 34089 ft | 474 kts | 238° |
| 2026-05-06 08:04 | 24.16103 | -154.46807 | 34093 ft | 474 kts | 238° |
| 2026-05-06 08:05 | 24.12392 | -154.52790 | 34090 ft | 474 kts | 238° |
| 2026-05-06 08:05 | 24.08687 | -154.58756 | 34090 ft | 474 kts | 238° |
| 2026-05-06 08:06 | 24.04993 | -154.64698 | 34087 ft | 475 kts | 238° |
| 2026-05-06 08:06 | 24.01277 | -154.70667 | 34086 ft | 474 kts | 238° |
| 2026-05-06 08:07 | 23.97557 | -154.76635 | 34088 ft | 474 kts | 238° |
| 2026-05-06 08:07 | 23.93845 | -154.82582 | 34090 ft | 473 kts | 238° |
| 2026-05-06 08:08 | 23.90134 | -154.88523 | 34089 ft | 473 kts | 238° |
| 2026-05-06 08:08 | 23.86416 | -154.94467 | 34090 ft | 472 kts | 238° |
| 2026-05-06 08:09 | 23.82732 | -155.00350 | 34079 ft | 473 kts | 238° |
| 2026-05-06 08:09 | 23.79014 | -155.06279 | 34093 ft | 472 kts | 238° |
| 2026-05-06 08:10 | 23.75287 | -155.12218 | 34082 ft | 473 kts | 238° |
| 2026-05-06 08:10 | 23.71563 | -155.18143 | 34084 ft | 473 kts | 238° |
| 2026-05-06 08:11 | 23.67866 | -155.24019 | 34104 ft | 472 kts | 238° |
| 2026-05-06 08:11 | 23.64137 | -155.29939 | 34084 ft | 473 kts | 238° |
| 2026-05-06 08:12 | 23.60408 | -155.35854 | 34085 ft | 473 kts | 238° |
| 2026-05-06 08:12 | 23.56670 | -155.41775 | 34090 ft | 474 kts | 238° |
| 2026-05-06 08:13 | 23.52869 | -155.47643 | 34070 ft | 475 kts | 234° |
| 2026-05-06 08:13 | 23.48362 | -155.52881 | 34070 ft | 478 kts | 227° |
| 2026-05-06 08:14 | 23.43639 | -155.57979 | 34090 ft | 478 kts | 227° |
| 2026-05-06 08:14 | 23.38930 | -155.63100 | 34084 ft | 478 kts | 228° |
| 2026-05-06 08:15 | 23.34227 | -155.68240 | 34093 ft | 478 kts | 228° |
| 2026-05-06 08:15 | 23.29526 | -155.73382 | 34093 ft | 479 kts | 228° |
| 2026-05-06 08:16 | 23.24843 | -155.78498 | 34074 ft | 479 kts | 228° |
| 2026-05-06 08:16 | 23.20135 | -155.83634 | 34086 ft | 479 kts | 228° |
| 2026-05-06 08:17 | 23.15453 | -155.88736 | 34093 ft | 479 kts | 228° |
| 2026-05-06 08:17 | 23.10733 | -155.93874 | 34073 ft | 480 kts | 228° |
| 2026-05-06 08:18 | 23.06014 | -155.99006 | 34088 ft | 480 kts | 228° |
| 2026-05-06 08:18 | 23.01293 | -156.04134 | 34082 ft | 480 kts | 227° |
| 2026-05-06 08:19 | 22.96572 | -156.09257 | 34081 ft | 480 kts | 227° |
| 2026-05-06 08:19 | 22.91873 | -156.14351 | 34083 ft | 480 kts | 227° |
| 2026-05-06 08:20 | 22.87147 | -156.19468 | 34083 ft | 480 kts | 227° |
| 2026-05-06 08:20 | 22.82419 | -156.24583 | 34080 ft | 480 kts | 227° |
| 2026-05-06 08:21 | 22.77692 | -156.29691 | 34080 ft | 479 kts | 227° |
| 2026-05-06 08:21 | 22.72962 | -156.34797 | 34077 ft | 479 kts | 227° |
| 2026-05-06 08:22 | 22.68261 | -156.39867 | 34084 ft | 479 kts | 227° |
| 2026-05-06 08:22 | 22.63500 | -156.44996 | 34082 ft | 479 kts | 227° |
| 2026-05-06 08:23 | 22.58796 | -156.50058 | 34085 ft | 479 kts | 227° |
| 2026-05-06 08:23 | 22.54074 | -156.55135 | 34083 ft | 479 kts | 227° |
| 2026-05-06 08:24 | 22.49345 | -156.60213 | 34081 ft | 479 kts | 227° |
| 2026-05-06 08:24 | 22.44608 | -156.65296 | 34082 ft | 479 kts | 227° |
| 2026-05-06 08:25 | 22.39884 | -156.70359 | 34085 ft | 479 kts | 227° |
| 2026-05-06 08:25 | 22.35142 | -156.75436 | 34085 ft | 479 kts | 227° |
| 2026-05-06 08:26 | 22.30402 | -156.80506 | 34079 ft | 479 kts | 227° |
| 2026-05-06 08:26 | 22.25669 | -156.85563 | 34083 ft | 478 kts | 227° |
| 2026-05-06 08:27 | 22.20937 | -156.90614 | 34080 ft | 478 kts | 227° |
| 2026-05-06 08:27 | 22.16207 | -156.95658 | 34083 ft | 478 kts | 227° |
| 2026-05-06 08:28 | 22.11498 | -157.00676 | 34079 ft | 478 kts | 227° |
| 2026-05-06 08:28 | 22.06755 | -157.05723 | 34086 ft | 478 kts | 227° |
| 2026-05-06 08:29 | 22.02014 | -157.10764 | 34077 ft | 478 kts | 227° |
| 2026-05-06 08:29 | 21.97284 | -157.15787 | 34080 ft | 477 kts | 227° |
| 2026-05-06 08:30 | 21.92579 | -157.20780 | 34070 ft | 477 kts | 227° |
| 2026-05-06 08:30 | 21.87848 | -157.25796 | 34071 ft | 477 kts | 227° |
| 2026-05-06 08:31 | 21.83104 | -157.30819 | 34061 ft | 477 kts | 227° |
| 2026-05-06 08:31 | 21.78366 | -157.35833 | 34053 ft | 478 kts | 227° |
| 2026-05-06 08:32 | 21.73632 | -157.40835 | 34052 ft | 477 kts | 227° |
| 2026-05-06 08:32 | 21.68892 | -157.45840 | 34047 ft | 476 kts | 227° |
| 2026-05-06 08:33 | 21.64185 | -157.50805 | 34055 ft | 476 kts | 227° |
| 2026-05-06 08:33 | 21.59459 | -157.55786 | 34048 ft | 476 kts | 227° |
| 2026-05-06 08:34 | 21.52363 | -157.63256 | 34049 ft | 476 kts | 227° |
| 2026-05-06 08:35 | 21.47639 | -157.68222 | 34070 ft | 475 kts | 227° |
| 2026-05-06 08:35 | 21.42913 | -157.73186 | 34065 ft | 475 kts | 227° |
| 2026-05-06 08:36 | 21.38196 | -157.78135 | 34064 ft | 474 kts | 227° |
| 2026-05-06 08:36 | 21.33472 | -157.83088 | 34092 ft | 474 kts | 227° |
| 2026-05-06 08:37 | 21.28755 | -157.88028 | 34088 ft | 474 kts | 227° |
| 2026-05-06 08:37 | 21.24067 | -157.92933 | 34086 ft | 473 kts | 227° |
| 2026-05-06 08:38 | 21.19353 | -157.97861 | 34089 ft | 473 kts | 227° |
| 2026-05-06 08:38 | 21.14643 | -158.02780 | 34099 ft | 472 kts | 227° |
| 2026-05-06 08:39 | 21.09934 | -158.07693 | 34095 ft | 472 kts | 227° |
| 2026-05-06 08:39 | 21.06020 | -158.11774 | 34079 ft | 472 kts | 227° |
| 2026-05-06 08:40 | 21.00548 | -158.17473 | 34072 ft | 472 kts | 227° |
| 2026-05-06 08:40 | 20.96608 | -158.21572 | 34082 ft | 472 kts | 227° |
| 2026-05-06 08:41 | 20.91901 | -158.26466 | 34085 ft | 472 kts | 227° |
| 2026-05-06 08:41 | 20.87223 | -158.31325 | 34082 ft | 472 kts | 227° |
| 2026-05-06 08:42 | 20.82504 | -158.36223 | 34071 ft | 472 kts | 227° |
| 2026-05-06 08:42 | 20.77791 | -158.41109 | 34068 ft | 472 kts | 226° |
| 2026-05-06 08:43 | 20.73069 | -158.46001 | 34088 ft | 472 kts | 226° |
| 2026-05-06 08:43 | 20.68346 | -158.50889 | 34087 ft | 472 kts | 226° |
| 2026-05-06 08:44 | 20.63622 | -158.55773 | 34076 ft | 473 kts | 226° |
| 2026-05-06 08:44 | 20.58924 | -158.60626 | 34070 ft | 473 kts | 226° |
| 2026-05-06 08:45 | 20.54190 | -158.65512 | 34073 ft | 473 kts | 226° |
| 2026-05-06 08:45 | 20.49448 | -158.70402 | 34087 ft | 474 kts | 226° |
| 2026-05-06 08:46 | 20.44711 | -158.75283 | 34080 ft | 474 kts | 226° |
| 2026-05-06 08:46 | 20.39966 | -158.80166 | 34079 ft | 473 kts | 226° |
| 2026-05-06 08:47 | 20.35257 | -158.85009 | 34077 ft | 473 kts | 226° |
| 2026-05-06 08:47 | 20.30510 | -158.89885 | 34081 ft | 472 kts | 226° |
| 2026-05-06 08:48 | 20.25773 | -158.94748 | 34082 ft | 473 kts | 226° |
| 2026-05-06 08:48 | 20.21033 | -158.99610 | 34082 ft | 473 kts | 226° |
| 2026-05-06 08:49 | 20.16290 | -159.04470 | 34066 ft | 473 kts | 226° |
| 2026-05-06 08:49 | 20.11577 | -159.09294 | 34079 ft | 472 kts | 226° |
| 2026-05-06 08:50 | 20.06857 | -159.14122 | 34077 ft | 470 kts | 226° |
| 2026-05-06 08:50 | 20.02143 | -159.18940 | 34081 ft | 469 kts | 226° |
| 2026-05-06 08:51 | 19.97424 | -159.23758 | 34085 ft | 470 kts | 226° |
| 2026-05-06 08:51 | 19.92707 | -159.28571 | 34082 ft | 470 kts | 226° |
| 2026-05-06 08:52 | 19.88016 | -159.33353 | 34071 ft | 470 kts | 226° |
| 2026-05-06 08:52 | 19.83297 | -159.38158 | 34076 ft | 469 kts | 226° |
| 2026-05-06 08:53 | 19.78588 | -159.42950 | 34080 ft | 468 kts | 226° |
| 2026-05-06 08:53 | 19.73888 | -159.47728 | 34081 ft | 467 kts | 226° |
| 2026-05-06 08:54 | 19.69217 | -159.52473 | 34082 ft | 467 kts | 226° |
| 2026-05-06 08:54 | 19.64517 | -159.57244 | 34079 ft | 467 kts | 226° |
| 2026-05-06 08:55 | 19.59822 | -159.62005 | 34071 ft | 467 kts | 226° |
| 2026-05-06 08:55 | 19.55132 | -159.66757 | 34080 ft | 467 kts | 226° |
| 2026-05-06 08:56 | 19.50433 | -159.71514 | 34085 ft | 467 kts | 226° |
| 2026-05-06 08:56 | 19.45730 | -159.76271 | 34083 ft | 467 kts | 226° |
| 2026-05-06 08:57 | 19.41027 | -159.81024 | 34082 ft | 467 kts | 226° |
| 2026-05-06 08:57 | 19.36341 | -159.85756 | 34078 ft | 467 kts | 226° |
| 2026-05-06 08:58 | 19.31638 | -159.90501 | 34068 ft | 468 kts | 226° |
| 2026-05-06 08:58 | 19.26921 | -159.95257 | 34073 ft | 468 kts | 226° |
| 2026-05-06 08:59 | 19.22206 | -160.00006 | 34078 ft | 468 kts | 225° |
| 2026-05-06 08:59 | 19.17486 | -160.04756 | 34077 ft | 468 kts | 225° |
| 2026-05-06 09:00 | 19.12769 | -160.09499 | 34074 ft | 468 kts | 225° |
| 2026-05-06 09:00 | 19.08033 | -160.14258 | 34222 ft | 470 kts | 225° |
| 2026-05-06 09:00 | 19.05675 | -160.16625 | 34469 ft | 467 kts | 225° |
| 2026-05-06 09:01 | 19.03328 | -160.18981 | 34761 ft | 465 kts | 226° |
| 2026-05-06 09:01 | 19.00982 | -160.21334 | 35052 ft | 462 kts | 226° |
| 2026-05-06 09:01 | 18.98653 | -160.23670 | 35238 ft | 461 kts | 226° |
| 2026-05-06 09:01 | 18.96354 | -160.25974 | 35482 ft | 460 kts | 226° |
| 2026-05-06 09:02 | 18.94034 | -160.28299 | 35727 ft | 458 kts | 226° |
| 2026-05-06 09:02 | 18.91726 | -160.30611 | 35940 ft | 457 kts | 226° |
| 2026-05-06 09:02 | 18.89418 | -160.32922 | 35989 ft | 458 kts | 226° |
| 2026-05-06 09:03 | 18.84792 | -160.37553 | 36069 ft | 457 kts | 226° |
| 2026-05-06 09:03 | 18.80178 | -160.42166 | 36074 ft | 457 kts | 226° |
| 2026-05-06 09:04 | 18.75562 | -160.46779 | 36080 ft | 456 kts | 226° |
| 2026-05-06 09:04 | 18.70959 | -160.51374 | 36074 ft | 455 kts | 226° |
| 2026-05-06 09:05 | 18.66353 | -160.55969 | 36068 ft | 454 kts | 226° |
| 2026-05-06 09:05 | 18.61786 | -160.60521 | 36074 ft | 454 kts | 226° |
| 2026-05-06 09:06 | 18.57188 | -160.65101 | 36075 ft | 454 kts | 226° |
| 2026-05-06 09:06 | 18.52603 | -160.69665 | 36073 ft | 454 kts | 226° |
| 2026-05-06 09:07 | 18.48010 | -160.74233 | 36073 ft | 454 kts | 226° |
| 2026-05-06 09:07 | 18.43417 | -160.78799 | 36066 ft | 453 kts | 226° |
| 2026-05-06 09:08 | 18.38905 | -160.83437 | 36070 ft | 452 kts | 229° |
| 2026-05-06 09:08 | 18.34602 | -160.88202 | 36072 ft | 451 kts | 229° |
| 2026-05-06 09:09 | 18.30284 | -160.93007 | 36070 ft | 452 kts | 229° |
| 2026-05-06 09:09 | 18.25954 | -160.97806 | 36069 ft | 452 kts | 229° |
| 2026-05-06 09:10 | 18.21608 | -161.02607 | 36070 ft | 453 kts | 229° |
| 2026-05-06 09:10 | 18.17256 | -161.07407 | 36068 ft | 454 kts | 229° |
| 2026-05-06 09:11 | 18.12906 | -161.12201 | 36067 ft | 453 kts | 229° |
| 2026-05-06 09:11 | 18.08552 | -161.16996 | 36064 ft | 453 kts | 229° |
| 2026-05-06 09:12 | 18.04204 | -161.21782 | 36066 ft | 452 kts | 229° |
| 2026-05-06 09:12 | 17.99857 | -161.26562 | 36059 ft | 452 kts | 229° |
| 2026-05-06 09:13 | 17.95515 | -161.31333 | 36066 ft | 452 kts | 229° |
| 2026-05-06 09:13 | 17.91199 | -161.36073 | 36060 ft | 451 kts | 229° |
| 2026-05-06 09:14 | 17.86859 | -161.40834 | 36062 ft | 451 kts | 229° |
| 2026-05-06 09:14 | 17.82517 | -161.45595 | 36062 ft | 451 kts | 229° |
| 2026-05-06 09:15 | 17.78171 | -161.50357 | 36060 ft | 451 kts | 229° |
| 2026-05-06 09:15 | 17.73827 | -161.55112 | 36061 ft | 451 kts | 229° |
| 2026-05-06 09:16 | 17.69470 | -161.59878 | 36062 ft | 452 kts | 229° |
| 2026-05-06 09:16 | 17.65111 | -161.64644 | 36061 ft | 453 kts | 229° |
| 2026-05-06 09:17 | 17.60747 | -161.69410 | 36061 ft | 454 kts | 229° |
| 2026-05-06 09:17 | 17.56376 | -161.74181 | 36047 ft | 454 kts | 229° |
| 2026-05-06 09:18 | 17.52025 | -161.78926 | 36058 ft | 453 kts | 229° |
| 2026-05-06 09:18 | 17.47660 | -161.83683 | 36057 ft | 453 kts | 229° |
| 2026-05-06 09:19 | 17.43284 | -161.88449 | 36055 ft | 452 kts | 229° |
| 2026-05-06 09:19 | 17.38920 | -161.93198 | 36052 ft | 453 kts | 229° |
| 2026-05-06 09:20 | 17.34549 | -161.97952 | 36058 ft | 453 kts | 229° |
| 2026-05-06 09:20 | 17.30206 | -162.02672 | 36048 ft | 453 kts | 229° |
| 2026-05-06 09:21 | 17.25837 | -162.07415 | 36038 ft | 453 kts | 229° |
| 2026-05-06 09:21 | 17.21455 | -162.12170 | 36052 ft | 453 kts | 229° |
| 2026-05-06 09:22 | 17.17086 | -162.16907 | 36051 ft | 452 kts | 229° |
| 2026-05-06 09:22 | 17.12712 | -162.21646 | 36051 ft | 452 kts | 229° |
| 2026-05-06 09:23 | 17.08342 | -162.26377 | 36054 ft | 452 kts | 229° |
| 2026-05-06 09:23 | 17.03967 | -162.31112 | 36049 ft | 453 kts | 229° |
| 2026-05-06 09:24 | 16.99614 | -162.35818 | 36049 ft | 453 kts | 229° |
| 2026-05-06 09:24 | 16.95216 | -162.40569 | 36034 ft | 453 kts | 229° |
| 2026-05-06 09:25 | 16.90844 | -162.45289 | 36045 ft | 452 kts | 229° |
| 2026-05-06 09:25 | 16.87203 | -162.49217 | 36046 ft | 452 kts | 229° |
| 2026-05-06 09:26 | 16.82120 | -162.54697 | 36042 ft | 451 kts | 229° |
| 2026-05-06 09:26 | 16.77754 | -162.59401 | 36044 ft | 451 kts | 229° |
| 2026-05-06 09:27 | 16.74092 | -162.63344 | 36044 ft | 451 kts | 229° |
| 2026-05-06 09:27 | 16.69743 | -162.68024 | 36039 ft | 452 kts | 229° |
| 2026-05-06 09:28 | 16.65360 | -162.72736 | 36021 ft | 452 kts | 229° |
| 2026-05-06 09:28 | 16.60978 | -162.77445 | 36036 ft | 452 kts | 229° |
| 2026-05-06 09:29 | 16.56602 | -162.82143 | 36038 ft | 451 kts | 229° |
| 2026-05-06 09:29 | 16.52229 | -162.86834 | 36037 ft | 450 kts | 229° |
| 2026-05-06 09:30 | 16.47893 | -162.91484 | 36042 ft | 450 kts | 229° |
| 2026-05-06 09:30 | 16.43531 | -162.96157 | 36038 ft | 450 kts | 229° |
| 2026-05-06 09:31 | 16.39164 | -163.00833 | 36041 ft | 450 kts | 229° |
| 2026-05-06 09:31 | 16.34799 | -163.05504 | 36017 ft | 450 kts | 230° |
| 2026-05-06 09:32 | 16.30431 | -163.10174 | 36029 ft | 449 kts | 230° |
| 2026-05-06 09:32 | 16.26070 | -163.14834 | 36028 ft | 448 kts | 230° |
| 2026-05-06 09:33 | 16.21721 | -163.19477 | 36030 ft | 447 kts | 230° |
| 2026-05-06 09:33 | 16.17413 | -163.24074 | 36026 ft | 446 kts | 230° |
| 2026-05-06 09:34 | 16.13087 | -163.28688 | 36030 ft | 446 kts | 230° |
| 2026-05-06 09:34 | 16.08750 | -163.33310 | 36045 ft | 445 kts | 230° |
| 2026-05-06 09:35 | 16.04420 | -163.37921 | 36029 ft | 445 kts | 230° |
| 2026-05-06 09:35 | 16.00091 | -163.42528 | 36032 ft | 445 kts | 230° |
| 2026-05-06 09:36 | 15.95791 | -163.47103 | 36026 ft | 444 kts | 230° |
| 2026-05-06 09:36 | 15.91470 | -163.51695 | 36029 ft | 444 kts | 230° |
| 2026-05-06 09:37 | 15.87150 | -163.56283 | 36028 ft | 444 kts | 230° |
| 2026-05-06 09:37 | 15.82840 | -163.60858 | 36031 ft | 443 kts | 230° |
| 2026-05-06 09:38 | 15.78520 | -163.65442 | 36025 ft | 443 kts | 231° |
| 2026-05-06 09:38 | 15.74199 | -163.70023 | 36022 ft | 444 kts | 230° |
| 2026-05-06 09:39 | 15.69881 | -163.74597 | 36021 ft | 444 kts | 231° |
| 2026-05-06 09:39 | 15.65556 | -163.79176 | 36028 ft | 444 kts | 231° |
| 2026-05-06 09:40 | 15.61227 | -163.83756 | 36030 ft | 444 kts | 231° |
| 2026-05-06 09:40 | 15.54757 | -163.90597 | 36023 ft | 444 kts | 230° |
| 2026-05-06 09:41 | 15.50423 | -163.95175 | 36020 ft | 444 kts | 230° |
| 2026-05-06 09:41 | 15.46090 | -163.99750 | 36024 ft | 445 kts | 230° |
| 2026-05-06 09:42 | 15.41752 | -164.04326 | 36020 ft | 445 kts | 231° |
| 2026-05-06 09:42 | 15.37409 | -164.08905 | 36011 ft | 444 kts | 231° |
| 2026-05-06 09:43 | 15.33112 | -164.13433 | 36019 ft | 444 kts | 231° |
| 2026-05-06 09:43 | 15.28773 | -164.18003 | 36025 ft | 444 kts | 231° |
| 2026-05-06 09:44 | 15.24438 | -164.22564 | 36023 ft | 444 kts | 231° |
| 2026-05-06 09:44 | 15.20103 | -164.27124 | 36013 ft | 444 kts | 231° |
| 2026-05-06 09:45 | 15.15765 | -164.31683 | 36014 ft | 444 kts | 231° |
| 2026-05-06 09:45 | 15.11435 | -164.36232 | 36019 ft | 444 kts | 231° |
| 2026-05-06 09:46 | 15.07122 | -164.40759 | 35999 ft | 444 kts | 231° |
| 2026-05-06 09:46 | 15.02782 | -164.45312 | 36009 ft | 444 kts | 231° |
| 2026-05-06 09:47 | 14.98447 | -164.49858 | 36014 ft | 444 kts | 231° |
| 2026-05-06 09:47 | 14.94172 | -164.54338 | 36013 ft | 444 kts | 231° |
| 2026-05-06 09:48 | 14.89823 | -164.58892 | 36014 ft | 445 kts | 231° |
| 2026-05-06 09:48 | 14.85467 | -164.63451 | 36015 ft | 445 kts | 231° |
| 2026-05-06 09:49 | 14.81145 | -164.67971 | 36010 ft | 445 kts | 231° |
| 2026-05-06 09:49 | 14.76797 | -164.72516 | 36011 ft | 445 kts | 231° |
| 2026-05-06 09:50 | 14.72440 | -164.77067 | 36011 ft | 445 kts | 231° |
| 2026-05-06 09:50 | 14.68090 | -164.81609 | 36008 ft | 445 kts | 231° |
| 2026-05-06 09:51 | 14.63733 | -164.86156 | 36008 ft | 445 kts | 231° |
| 2026-05-06 09:51 | 14.59407 | -164.90666 | 36008 ft | 445 kts | 231° |
| 2026-05-06 09:52 | 14.55049 | -164.95208 | 36008 ft | 445 kts | 231° |
| 2026-05-06 09:52 | 14.50696 | -164.99742 | 36008 ft | 445 kts | 231° |
| 2026-05-06 09:53 | 14.46340 | -165.04277 | 36008 ft | 444 kts | 231° |
| 2026-05-06 09:53 | 14.41986 | -165.08806 | 35993 ft | 445 kts | 231° |
| 2026-05-06 09:54 | 14.37626 | -165.13339 | 36003 ft | 445 kts | 231° |
| 2026-05-06 09:54 | 14.33253 | -165.17883 | 36004 ft | 446 kts | 231° |
| 2026-05-06 09:55 | 14.28881 | -165.22424 | 36004 ft | 446 kts | 231° |
| 2026-05-06 09:55 | 14.24529 | -165.26940 | 36003 ft | 447 kts | 231° |
| 2026-05-06 09:56 | 14.20142 | -165.31491 | 36004 ft | 447 kts | 231° |
| 2026-05-06 09:56 | 14.15756 | -165.36038 | 36001 ft | 447 kts | 231° |
| 2026-05-06 09:57 | 14.11374 | -165.40577 | 35985 ft | 446 kts | 231° |
| 2026-05-06 09:57 | 14.06994 | -165.45112 | 36005 ft | 446 kts | 231° |
| 2026-05-06 09:58 | 14.02623 | -165.49635 | 35999 ft | 446 kts | 231° |
| 2026-05-06 09:58 | 13.98248 | -165.54161 | 35998 ft | 445 kts | 231° |
| 2026-05-06 09:59 | 13.93876 | -165.58681 | 36000 ft | 445 kts | 231° |
| 2026-05-06 09:59 | 13.89508 | -165.63193 | 35994 ft | 445 kts | 231° |
| 2026-05-06 10:00 | 13.85138 | -165.67706 | 35998 ft | 445 kts | 231° |
| 2026-05-06 10:00 | 13.80764 | -165.72221 | 35995 ft | 445 kts | 231° |
| 2026-05-06 10:01 | 13.76390 | -165.76733 | 35988 ft | 445 kts | 231° |
| 2026-05-06 10:01 | 13.72018 | -165.81240 | 35997 ft | 445 kts | 231° |
| 2026-05-06 10:02 | 13.67636 | -165.85753 | 35996 ft | 446 kts | 231° |
| 2026-05-06 10:02 | 13.63246 | -165.90270 | 35989 ft | 446 kts | 231° |
| 2026-05-06 10:03 | 13.58860 | -165.94782 | 35993 ft | 446 kts | 231° |
| 2026-05-06 10:03 | 13.54494 | -165.99272 | 35993 ft | 446 kts | 231° |
| 2026-05-06 10:04 | 13.50098 | -166.03791 | 35982 ft | 446 kts | 231° |
| 2026-05-06 10:04 | 13.45704 | -166.08305 | 35965 ft | 447 kts | 231° |
| 2026-05-06 10:05 | 13.41297 | -166.12831 | 35981 ft | 448 kts | 231° |
| 2026-05-06 10:05 | 13.36909 | -166.17334 | 35988 ft | 449 kts | 231° |
| 2026-05-06 10:06 | 13.32476 | -166.21881 | 35986 ft | 451 kts | 231° |
| 2026-05-06 10:06 | 13.28034 | -166.26433 | 35987 ft | 451 kts | 231° |
| 2026-05-06 10:07 | 13.23590 | -166.30986 | 35981 ft | 451 kts | 231° |
| 2026-05-06 10:07 | 13.19144 | -166.35538 | 35980 ft | 451 kts | 231° |
| 2026-05-06 10:08 | 13.14697 | -166.40089 | 35980 ft | 451 kts | 231° |
| 2026-05-06 10:08 | 13.10255 | -166.44632 | 35971 ft | 450 kts | 231° |
| 2026-05-06 10:09 | 13.05842 | -166.49143 | 35981 ft | 450 kts | 231° |
| 2026-05-06 10:09 | 13.01402 | -166.53680 | 35981 ft | 451 kts | 231° |
| 2026-05-06 10:10 | 12.96951 | -166.58225 | 35975 ft | 451 kts | 231° |
| 2026-05-06 10:10 | 12.92492 | -166.62776 | 35976 ft | 452 kts | 231° |
| 2026-05-06 10:11 | 12.88785 | -166.66558 | 35978 ft | 452 kts | 231° |
| 2026-05-06 10:11 | 12.84322 | -166.71109 | 35975 ft | 452 kts | 231° |
| 2026-05-06 10:12 | 12.79864 | -166.75652 | 35976 ft | 452 kts | 231° |
| 2026-05-06 10:12 | 12.75393 | -166.80207 | 35969 ft | 453 kts | 230° |
| 2026-05-06 10:13 | 12.70946 | -166.84735 | 35976 ft | 455 kts | 230° |
| 2026-05-06 10:13 | 12.66444 | -166.89316 | 35974 ft | 457 kts | 230° |
| 2026-05-06 10:14 | 12.61929 | -166.93908 | 35974 ft | 458 kts | 230° |
| 2026-05-06 10:14 | 12.57399 | -166.98511 | 35970 ft | 459 kts | 230° |
| 2026-05-06 10:15 | 12.52868 | -167.03114 | 35972 ft | 459 kts | 230° |
| 2026-05-06 10:15 | 12.48334 | -167.07717 | 35973 ft | 458 kts | 230° |
| 2026-05-06 10:16 | 12.43839 | -167.12278 | 35953 ft | 458 kts | 230° |
| 2026-05-06 10:16 | 12.39309 | -167.16873 | 35967 ft | 458 kts | 230° |
| 2026-05-06 10:17 | 12.34782 | -167.21463 | 35968 ft | 458 kts | 230° |
| 2026-05-06 10:17 | 12.30252 | -167.26054 | 35966 ft | 459 kts | 230° |
| 2026-05-06 10:18 | 12.25713 | -167.30651 | 35965 ft | 459 kts | 230° |
| 2026-05-06 10:18 | 12.21171 | -167.35249 | 35964 ft | 460 kts | 230° |
| 2026-05-06 10:19 | 12.16623 | -167.39850 | 35966 ft | 460 kts | 230° |
| 2026-05-06 10:19 | 12.12062 | -167.44462 | 35964 ft | 460 kts | 230° |
| 2026-05-06 10:20 | 12.07540 | -167.49032 | 35955 ft | 460 kts | 230° |
| 2026-05-06 10:20 | 12.02958 | -167.53659 | 35962 ft | 460 kts | 230° |
| 2026-05-06 10:21 | 11.98442 | -167.58219 | 35961 ft | 460 kts | 230° |
| 2026-05-06 10:21 | 11.93891 | -167.62811 | 35963 ft | 460 kts | 230° |
| 2026-05-06 10:22 | 11.89340 | -167.67403 | 35957 ft | 459 kts | 230° |
| 2026-05-06 10:22 | 11.84792 | -167.71988 | 35960 ft | 459 kts | 230° |
| 2026-05-06 10:23 | 11.80249 | -167.76565 | 35959 ft | 459 kts | 230° |
| 2026-05-06 10:23 | 11.75710 | -167.81137 | 35949 ft | 459 kts | 230° |
| 2026-05-06 10:24 | 11.71158 | -167.85719 | 35958 ft | 459 kts | 230° |
| 2026-05-06 10:24 | 11.66632 | -167.90273 | 35960 ft | 460 kts | 230° |
| 2026-05-06 10:25 | 11.62072 | -167.94859 | 35959 ft | 460 kts | 229° |
| 2026-05-06 10:25 | 11.57499 | -167.99456 | 35964 ft | 460 kts | 230° |
| 2026-05-06 10:26 | 11.52939 | -168.04037 | 35961 ft | 460 kts | 230° |
| 2026-05-06 10:26 | 11.48368 | -168.08627 | 35953 ft | 460 kts | 230° |
| 2026-05-06 10:27 | 11.43833 | -168.13180 | 35955 ft | 460 kts | 230° |
| 2026-05-06 10:27 | 11.39267 | -168.17760 | 35957 ft | 460 kts | 230° |
| 2026-05-06 10:28 | 11.34707 | -168.22333 | 35950 ft | 460 kts | 230° |
| 2026-05-06 10:28 | 11.30180 | -168.26871 | 35953 ft | 459 kts | 229° |
| 2026-05-06 10:29 | 11.25624 | -168.31435 | 35954 ft | 459 kts | 230° |
| 2026-05-06 10:29 | 11.21070 | -168.35996 | 35954 ft | 459 kts | 229° |
| 2026-05-06 10:30 | 11.16509 | -168.40560 | 35956 ft | 459 kts | 229° |
| 2026-05-06 10:30 | 11.11957 | -168.45115 | 35956 ft | 459 kts | 229° |
| 2026-05-06 10:31 | 11.07386 | -168.49687 | 35942 ft | 459 kts | 228° |
| 2026-05-06 10:31 | 11.02847 | -168.54224 | 35957 ft | 460 kts | 228° |
| 2026-05-06 10:32 | 10.98267 | -168.58799 | 35959 ft | 462 kts | 227° |
| 2026-05-06 10:32 | 10.93695 | -168.63364 | 35951 ft | 463 kts | 227° |
| 2026-05-06 10:33 | 10.89085 | -168.67966 | 35956 ft | 464 kts | 227° |
| 2026-05-06 10:33 | 10.84472 | -168.72569 | 35949 ft | 464 kts | 227° |
| 2026-05-06 10:34 | 10.79860 | -168.77167 | 35946 ft | 464 kts | 227° |
| 2026-05-06 10:34 | 10.75267 | -168.81745 | 35948 ft | 464 kts | 227° |
| 2026-05-06 10:35 | 10.70656 | -168.86341 | 35941 ft | 464 kts | 227° |
| 2026-05-06 10:35 | 10.66037 | -168.90940 | 35946 ft | 465 kts | 227° |
| 2026-05-06 10:36 | 10.61409 | -168.95546 | 35944 ft | 466 kts | 227° |
| 2026-05-06 10:36 | 10.56805 | -169.00127 | 35946 ft | 466 kts | 227° |
| 2026-05-06 10:37 | 10.52137 | -169.04770 | 35946 ft | 467 kts | 227° |
| 2026-05-06 10:37 | 10.47493 | -169.09386 | 35947 ft | 467 kts | 227° |
| 2026-05-06 10:38 | 10.42848 | -169.14002 | 35942 ft | 467 kts | 227° |
| 2026-05-06 10:38 | 10.38229 | -169.18589 | 35938 ft | 467 kts | 226° |
| 2026-05-06 10:39 | 10.33572 | -169.23213 | 35935 ft | 468 kts | 226° |
| 2026-05-06 10:39 | 10.28900 | -169.27850 | 35942 ft | 469 kts | 226° |
| 2026-05-06 10:40 | 10.24215 | -169.32496 | 35936 ft | 470 kts | 226° |
| 2026-05-06 10:40 | 10.19528 | -169.37143 | 35939 ft | 471 kts | 226° |
| 2026-05-06 10:41 | 10.14836 | -169.41794 | 35937 ft | 471 kts | 226° |
| 2026-05-06 10:41 | 10.10176 | -169.46410 | 35941 ft | 471 kts | 226° |
| 2026-05-06 10:42 | 10.05481 | -169.51058 | 35932 ft | 471 kts | 226° |
| 2026-05-06 10:42 | 10.00804 | -169.55688 | 35929 ft | 471 kts | 226° |
| 2026-05-06 10:43 | 9.96109 | -169.60333 | 35932 ft | 471 kts | 226° |
| 2026-05-06 10:44 | 9.89073 | -169.67291 | 35929 ft | 471 kts | 226° |
| 2026-05-06 10:44 | 9.84385 | -169.71924 | 35932 ft | 471 kts | 226° |
| 2026-05-06 10:45 | 9.79688 | -169.76564 | 35929 ft | 471 kts | 226° |
| 2026-05-06 10:45 | 9.74995 | -169.81199 | 35929 ft | 471 kts | 226° |
| 2026-05-06 10:46 | 9.70305 | -169.85828 | 35929 ft | 470 kts | 226° |
| 2026-05-06 10:46 | 9.65650 | -169.90422 | 35921 ft | 470 kts | 226° |
| 2026-05-06 10:47 | 9.60967 | -169.95040 | 35924 ft | 470 kts | 226° |
| 2026-05-06 10:47 | 9.56279 | -169.99662 | 35928 ft | 470 kts | 226° |
| 2026-05-06 10:48 | 9.51590 | -170.04283 | 35923 ft | 470 kts | 226° |
| 2026-05-06 10:48 | 9.46904 | -170.08899 | 35920 ft | 470 kts | 226° |
| 2026-05-06 10:49 | 9.42214 | -170.13517 | 35925 ft | 470 kts | 226° |
| 2026-05-06 10:49 | 9.37519 | -170.18138 | 35925 ft | 470 kts | 225° |
| 2026-05-06 10:50 | 9.32831 | -170.22751 | 35918 ft | 470 kts | 225° |
| 2026-05-06 10:50 | 9.28140 | -170.27365 | 35918 ft | 470 kts | 225° |
| 2026-05-06 10:51 | 9.23480 | -170.31946 | 35921 ft | 470 kts | 225° |
| 2026-05-06 10:51 | 9.18777 | -170.36568 | 35922 ft | 471 kts | 225° |
| 2026-05-06 10:52 | 9.14072 | -170.41191 | 35917 ft | 471 kts | 225° |
| 2026-05-06 10:52 | 9.09360 | -170.45818 | 35916 ft | 471 kts | 225° |
| 2026-05-06 10:53 | 9.04657 | -170.50434 | 35916 ft | 471 kts | 225° |
| 2026-05-06 10:53 | 8.99951 | -170.55053 | 35913 ft | 471 kts | 225° |
| 2026-05-06 10:54 | 8.95277 | -170.59639 | 35908 ft | 471 kts | 224° |
| 2026-05-06 10:54 | 8.90569 | -170.64256 | 35910 ft | 471 kts | 224° |
| 2026-05-06 10:55 | 8.85856 | -170.68873 | 35913 ft | 471 kts | 224° |
| 2026-05-06 10:55 | 8.81146 | -170.73485 | 35911 ft | 471 kts | 224° |
| 2026-05-06 10:56 | 8.76433 | -170.78099 | 35904 ft | 471 kts | 224° |
| 2026-05-06 10:56 | 8.71752 | -170.82682 | 35908 ft | 471 kts | 224° |
| 2026-05-06 10:57 | 8.67045 | -170.87290 | 35910 ft | 471 kts | 224° |
| 2026-05-06 10:57 | 8.62336 | -170.91897 | 35911 ft | 471 kts | 224° |
| 2026-05-06 10:58 | 8.58422 | -170.95725 | 35904 ft | 471 kts | 224° |
| 2026-05-06 10:58 | 8.53715 | -171.00327 | 35905 ft | 471 kts | 224° |
| 2026-05-06 10:59 | 8.49002 | -171.04933 | 35906 ft | 471 kts | 224° |
| 2026-05-06 10:59 | 8.44282 | -171.09545 | 35915 ft | 472 kts | 224° |
| 2026-05-06 11:00 | 8.39567 | -171.14149 | 35917 ft | 472 kts | 224° |
| 2026-05-06 11:00 | 8.34877 | -171.18728 | 35914 ft | 472 kts | 224° |
| 2026-05-06 11:01 | 8.30161 | -171.23332 | 35908 ft | 472 kts | 224° |
| 2026-05-06 11:01 | 8.25435 | -171.27943 | 35908 ft | 472 kts | 224° |
| 2026-05-06 11:02 | 8.20720 | -171.32540 | 35910 ft | 471 kts | 224° |
| 2026-05-06 11:02 | 8.15994 | -171.37149 | 35913 ft | 472 kts | 224° |